<?xml version="1.0" encoding="UTF-8" standalone="no" ?>
<gpx xmlns="http://www.topografix.com/GPX/1/1" xmlns:xsi="http://www.w3.org/2001/XMLSchema-instance" xsi:schemaLocation="http://www.topografix.com/GPX/1/1 http://www.topografix.com/GPX/1/1/gpx.xsd" version="1.1" creator="VisuGPX - https://www.visugpx.com">
  <metadata>
    <name>ovs_04082011</name>
    <desc><![CDATA[sortie parc Miribel avec Guillaume et Benjamin]]></desc>
  </metadata>
  <trk>
    <name><![CDATA[OVS_04082011]]></name>
    <trkseg>
      <trkpt lat="45.75286" lon="4.86876">
        <ele>176</ele>
        <time>2011-08-04T14:53:27Z</time>
      </trkpt>
      <trkpt lat="45.75247" lon="4.87101">
        <ele>176</ele>
        <time>2011-08-04T14:54:34Z</time>
      </trkpt>
      <trkpt lat="45.7522" lon="4.87329">
        <ele>178</ele>
        <time>2011-08-04T14:55:08Z</time>
      </trkpt>
      <trkpt lat="45.75235" lon="4.87559">
        <ele>180</ele>
        <time>2011-08-04T14:55:43Z</time>
      </trkpt>
      <trkpt lat="45.75247" lon="4.87654">
        <ele>180</ele>
        <time>2011-08-04T14:55:57Z</time>
      </trkpt>
      <trkpt lat="45.7525" lon="4.87676">
        <ele>180</ele>
        <time>2011-08-04T14:56:02Z</time>
      </trkpt>
      <trkpt lat="45.75249" lon="4.8768">
        <ele>180</ele>
        <time>2011-08-04T14:56:07Z</time>
      </trkpt>
      <trkpt lat="45.75241" lon="4.87691">
        <ele>180</ele>
        <time>2011-08-04T14:56:15Z</time>
      </trkpt>
      <trkpt lat="45.7525" lon="4.87742">
        <ele>180</ele>
        <time>2011-08-04T14:56:25Z</time>
      </trkpt>
      <trkpt lat="45.75258" lon="4.87812">
        <ele>182</ele>
        <time>2011-08-04T14:56:37Z</time>
      </trkpt>
      <trkpt lat="45.75266" lon="4.87892">
        <ele>182</ele>
        <time>2011-08-04T14:56:49Z</time>
      </trkpt>
      <trkpt lat="45.7527" lon="4.87947">
        <ele>182</ele>
        <time>2011-08-04T14:56:57Z</time>
      </trkpt>
      <trkpt lat="45.75277" lon="4.88032">
        <ele>180</ele>
        <time>2011-08-04T14:57:08Z</time>
      </trkpt>
      <trkpt lat="45.75287" lon="4.88116">
        <ele>179</ele>
        <time>2011-08-04T14:57:19Z</time>
      </trkpt>
      <trkpt lat="45.75303" lon="4.88194">
        <ele>180</ele>
        <time>2011-08-04T14:57:30Z</time>
      </trkpt>
      <trkpt lat="45.7533" lon="4.88274">
        <ele>181</ele>
        <time>2011-08-04T14:57:43Z</time>
      </trkpt>
      <trkpt lat="45.75352" lon="4.88328">
        <ele>181</ele>
        <time>2011-08-04T14:57:51Z</time>
      </trkpt>
      <trkpt lat="45.75388" lon="4.88405">
        <ele>180</ele>
        <time>2011-08-04T14:58:03Z</time>
      </trkpt>
      <trkpt lat="45.75393" lon="4.88417">
        <ele>180</ele>
        <time>2011-08-04T14:58:05Z</time>
      </trkpt>
      <trkpt lat="45.75429" lon="4.88481">
        <ele>182</ele>
        <time>2011-08-04T14:58:19Z</time>
      </trkpt>
      <trkpt lat="45.75434" lon="4.88492">
        <ele>182</ele>
        <time>2011-08-04T14:58:25Z</time>
      </trkpt>
      <trkpt lat="45.75437" lon="4.88498">
        <ele>182</ele>
        <time>2011-08-04T14:58:32Z</time>
      </trkpt>
      <trkpt lat="45.75441" lon="4.88511">
        <ele>181</ele>
        <time>2011-08-04T14:58:35Z</time>
      </trkpt>
      <trkpt lat="45.75462" lon="4.88552">
        <ele>181</ele>
        <time>2011-08-04T14:58:44Z</time>
      </trkpt>
      <trkpt lat="45.75466" lon="4.88559">
        <ele>180</ele>
        <time>2011-08-04T14:58:49Z</time>
      </trkpt>
      <trkpt lat="45.75468" lon="4.88565">
        <ele>180</ele>
        <time>2011-08-04T14:59:05Z</time>
      </trkpt>
      <trkpt lat="45.75475" lon="4.88584">
        <ele>180</ele>
        <time>2011-08-04T14:59:11Z</time>
      </trkpt>
      <trkpt lat="45.755" lon="4.88658">
        <ele>180</ele>
        <time>2011-08-04T14:59:24Z</time>
      </trkpt>
      <trkpt lat="45.75516" lon="4.88726">
        <ele>181</ele>
        <time>2011-08-04T14:59:35Z</time>
      </trkpt>
      <trkpt lat="45.75527" lon="4.88806">
        <ele>182</ele>
        <time>2011-08-04T14:59:47Z</time>
      </trkpt>
      <trkpt lat="45.75538" lon="4.88889">
        <ele>182</ele>
        <time>2011-08-04T14:59:59Z</time>
      </trkpt>
      <trkpt lat="45.75551" lon="4.88981">
        <ele>183</ele>
        <time>2011-08-04T15:00:12Z</time>
      </trkpt>
      <trkpt lat="45.75563" lon="4.8906">
        <ele>184</ele>
        <time>2011-08-04T15:00:24Z</time>
      </trkpt>
      <trkpt lat="45.7557" lon="4.89106">
        <ele>183</ele>
        <time>2011-08-04T15:00:33Z</time>
      </trkpt>
      <trkpt lat="45.75572" lon="4.89122">
        <ele>183</ele>
        <time>2011-08-04T15:00:37Z</time>
      </trkpt>
      <trkpt lat="45.75572" lon="4.89134">
        <ele>183</ele>
        <time>2011-08-04T15:00:39Z</time>
      </trkpt>
      <trkpt lat="45.7558" lon="4.89198">
        <ele>182</ele>
        <time>2011-08-04T15:00:48Z</time>
      </trkpt>
      <trkpt lat="45.75591" lon="4.8928">
        <ele>181</ele>
        <time>2011-08-04T15:01:00Z</time>
      </trkpt>
      <trkpt lat="45.75604" lon="4.89377">
        <ele>181</ele>
        <time>2011-08-04T15:01:13Z</time>
      </trkpt>
      <trkpt lat="45.75616" lon="4.89436">
        <ele>181</ele>
        <time>2011-08-04T15:01:21Z</time>
      </trkpt>
      <trkpt lat="45.75629" lon="4.89526">
        <ele>182</ele>
        <time>2011-08-04T15:01:33Z</time>
      </trkpt>
      <trkpt lat="45.75639" lon="4.89602">
        <ele>182</ele>
        <time>2011-08-04T15:01:43Z</time>
      </trkpt>
      <trkpt lat="45.75653" lon="4.89703">
        <ele>183</ele>
        <time>2011-08-04T15:01:56Z</time>
      </trkpt>
      <trkpt lat="45.75664" lon="4.89783">
        <ele>183</ele>
        <time>2011-08-04T15:02:06Z</time>
      </trkpt>
      <trkpt lat="45.75676" lon="4.89857">
        <ele>182</ele>
        <time>2011-08-04T15:02:14Z</time>
      </trkpt>
      <trkpt lat="45.75689" lon="4.89942">
        <ele>183</ele>
        <time>2011-08-04T15:02:25Z</time>
      </trkpt>
      <trkpt lat="45.75693" lon="4.89979">
        <ele>182</ele>
        <time>2011-08-04T15:02:32Z</time>
      </trkpt>
      <trkpt lat="45.75697" lon="4.90017">
        <ele>182</ele>
        <time>2011-08-04T15:02:39Z</time>
      </trkpt>
      <trkpt lat="45.75705" lon="4.90079">
        <ele>182</ele>
        <time>2011-08-04T15:02:47Z</time>
      </trkpt>
      <trkpt lat="45.75719" lon="4.90192">
        <ele>184</ele>
        <time>2011-08-04T15:03:01Z</time>
      </trkpt>
      <trkpt lat="45.75731" lon="4.90263">
        <ele>185</ele>
        <time>2011-08-04T15:03:10Z</time>
      </trkpt>
      <trkpt lat="45.75743" lon="4.90368">
        <ele>184</ele>
        <time>2011-08-04T15:03:23Z</time>
      </trkpt>
      <trkpt lat="45.75747" lon="4.90403">
        <ele>185</ele>
        <time>2011-08-04T15:03:29Z</time>
      </trkpt>
      <trkpt lat="45.75753" lon="4.90447">
        <ele>186</ele>
        <time>2011-08-04T15:03:34Z</time>
      </trkpt>
      <trkpt lat="45.75764" lon="4.90529">
        <ele>186</ele>
        <time>2011-08-04T15:03:42Z</time>
      </trkpt>
      <trkpt lat="45.7578" lon="4.90646">
        <ele>186</ele>
        <time>2011-08-04T15:03:54Z</time>
      </trkpt>
      <trkpt lat="45.75795" lon="4.90752">
        <ele>185</ele>
        <time>2011-08-04T15:04:06Z</time>
      </trkpt>
      <trkpt lat="45.75797" lon="4.90779">
        <ele>185</ele>
        <time>2011-08-04T15:04:11Z</time>
      </trkpt>
      <trkpt lat="45.758" lon="4.90795">
        <ele>185</ele>
        <time>2011-08-04T15:04:16Z</time>
      </trkpt>
      <trkpt lat="45.75808" lon="4.90848">
        <ele>184</ele>
        <time>2011-08-04T15:04:24Z</time>
      </trkpt>
      <trkpt lat="45.75817" lon="4.90921">
        <ele>184</ele>
        <time>2011-08-04T15:04:34Z</time>
      </trkpt>
      <trkpt lat="45.7583" lon="4.91009">
        <ele>184</ele>
        <time>2011-08-04T15:04:46Z</time>
      </trkpt>
      <trkpt lat="45.75839" lon="4.9107">
        <ele>182</ele>
        <time>2011-08-04T15:04:54Z</time>
      </trkpt>
      <trkpt lat="45.75852" lon="4.9115">
        <ele>182</ele>
        <time>2011-08-04T15:05:03Z</time>
      </trkpt>
      <trkpt lat="45.75863" lon="4.9123">
        <ele>183</ele>
        <time>2011-08-04T15:05:12Z</time>
      </trkpt>
      <trkpt lat="45.7588" lon="4.91331">
        <ele>184</ele>
        <time>2011-08-04T15:05:24Z</time>
      </trkpt>
      <trkpt lat="45.75899" lon="4.91416">
        <ele>184</ele>
        <time>2011-08-04T15:05:35Z</time>
      </trkpt>
      <trkpt lat="45.75922" lon="4.91509">
        <ele>185</ele>
        <time>2011-08-04T15:05:47Z</time>
      </trkpt>
      <trkpt lat="45.75941" lon="4.91582">
        <ele>185</ele>
        <time>2011-08-04T15:05:56Z</time>
      </trkpt>
      <trkpt lat="45.7596" lon="4.9166">
        <ele>185</ele>
        <time>2011-08-04T15:06:04Z</time>
      </trkpt>
      <trkpt lat="45.75985" lon="4.91758">
        <ele>185</ele>
        <time>2011-08-04T15:06:16Z</time>
      </trkpt>
      <trkpt lat="45.76011" lon="4.91863">
        <ele>186</ele>
        <time>2011-08-04T15:06:29Z</time>
      </trkpt>
      <trkpt lat="45.7603" lon="4.91945">
        <ele>185</ele>
        <time>2011-08-04T15:06:40Z</time>
      </trkpt>
      <trkpt lat="45.76048" lon="4.92013">
        <ele>185</ele>
        <time>2011-08-04T15:06:50Z</time>
      </trkpt>
      <trkpt lat="45.76057" lon="4.92045">
        <ele>185</ele>
        <time>2011-08-04T15:06:57Z</time>
      </trkpt>
      <trkpt lat="45.76063" lon="4.92069">
        <ele>185</ele>
        <time>2011-08-04T15:07:03Z</time>
      </trkpt>
      <trkpt lat="45.76067" lon="4.9209">
        <ele>185</ele>
        <time>2011-08-04T15:07:09Z</time>
      </trkpt>
      <trkpt lat="45.76074" lon="4.92133">
        <ele>185</ele>
        <time>2011-08-04T15:07:17Z</time>
      </trkpt>
      <trkpt lat="45.76085" lon="4.9219">
        <ele>185</ele>
        <time>2011-08-04T15:07:26Z</time>
      </trkpt>
      <trkpt lat="45.76087" lon="4.92196">
        <ele>184</ele>
        <time>2011-08-04T15:07:27Z</time>
      </trkpt>
      <trkpt lat="45.76089" lon="4.92221">
        <ele>184</ele>
        <time>2011-08-04T15:07:31Z</time>
      </trkpt>
      <trkpt lat="45.76112" lon="4.923">
        <ele>185</ele>
        <time>2011-08-04T15:07:42Z</time>
      </trkpt>
      <trkpt lat="45.76139" lon="4.92385">
        <ele>184</ele>
        <time>2011-08-04T15:07:53Z</time>
      </trkpt>
      <trkpt lat="45.76161" lon="4.92464">
        <ele>182</ele>
        <time>2011-08-04T15:08:03Z</time>
      </trkpt>
      <trkpt lat="45.76181" lon="4.92545">
        <ele>183</ele>
        <time>2011-08-04T15:08:14Z</time>
      </trkpt>
      <trkpt lat="45.76207" lon="4.92646">
        <ele>182</ele>
        <time>2011-08-04T15:08:27Z</time>
      </trkpt>
      <trkpt lat="45.76227" lon="4.92722">
        <ele>184</ele>
        <time>2011-08-04T15:08:36Z</time>
      </trkpt>
      <trkpt lat="45.76243" lon="4.92791">
        <ele>185</ele>
        <time>2011-08-04T15:08:44Z</time>
      </trkpt>
      <trkpt lat="45.76269" lon="4.92892">
        <ele>184</ele>
        <time>2011-08-04T15:08:56Z</time>
      </trkpt>
      <trkpt lat="45.7629" lon="4.92977">
        <ele>184</ele>
        <time>2011-08-04T15:09:06Z</time>
      </trkpt>
      <trkpt lat="45.76315" lon="4.93078">
        <ele>185</ele>
        <time>2011-08-04T15:09:17Z</time>
      </trkpt>
      <trkpt lat="45.7634" lon="4.93179">
        <ele>187</ele>
        <time>2011-08-04T15:09:29Z</time>
      </trkpt>
      <trkpt lat="45.76365" lon="4.93277">
        <ele>186</ele>
        <time>2011-08-04T15:09:41Z</time>
      </trkpt>
      <trkpt lat="45.76371" lon="4.93301">
        <ele>186</ele>
        <time>2011-08-04T15:09:44Z</time>
      </trkpt>
      <trkpt lat="45.7638" lon="4.93321">
        <ele>186</ele>
        <time>2011-08-04T15:09:47Z</time>
      </trkpt>
      <trkpt lat="45.76397" lon="4.93356">
        <ele>186</ele>
        <time>2011-08-04T15:09:52Z</time>
      </trkpt>
      <trkpt lat="45.76423" lon="4.93458">
        <ele>187</ele>
        <time>2011-08-04T15:10:04Z</time>
      </trkpt>
      <trkpt lat="45.76454" lon="4.93584">
        <ele>187</ele>
        <time>2011-08-04T15:10:19Z</time>
      </trkpt>
      <trkpt lat="45.76474" lon="4.93666">
        <ele>187</ele>
        <time>2011-08-04T15:10:29Z</time>
      </trkpt>
      <trkpt lat="45.76481" lon="4.9369">
        <ele>186</ele>
        <time>2011-08-04T15:10:33Z</time>
      </trkpt>
      <trkpt lat="45.76482" lon="4.93694">
        <ele>186</ele>
        <time>2011-08-04T15:10:39Z</time>
      </trkpt>
      <trkpt lat="45.76493" lon="4.93743">
        <ele>186</ele>
        <time>2011-08-04T15:10:50Z</time>
      </trkpt>
      <trkpt lat="45.76512" lon="4.93817">
        <ele>187</ele>
        <time>2011-08-04T15:10:59Z</time>
      </trkpt>
      <trkpt lat="45.76536" lon="4.93912">
        <ele>187</ele>
        <time>2011-08-04T15:11:11Z</time>
      </trkpt>
      <trkpt lat="45.76559" lon="4.94005">
        <ele>187</ele>
        <time>2011-08-04T15:11:22Z</time>
      </trkpt>
      <trkpt lat="45.76587" lon="4.94118">
        <ele>186</ele>
        <time>2011-08-04T15:11:35Z</time>
      </trkpt>
      <trkpt lat="45.76614" lon="4.9422">
        <ele>186</ele>
        <time>2011-08-04T15:11:47Z</time>
      </trkpt>
      <trkpt lat="45.76636" lon="4.94311">
        <ele>188</ele>
        <time>2011-08-04T15:11:58Z</time>
      </trkpt>
      <trkpt lat="45.76651" lon="4.94367">
        <ele>188</ele>
        <time>2011-08-04T15:12:06Z</time>
      </trkpt>
      <trkpt lat="45.76662" lon="4.94413">
        <ele>188</ele>
        <time>2011-08-04T15:12:13Z</time>
      </trkpt>
      <trkpt lat="45.76685" lon="4.9451">
        <ele>189</ele>
        <time>2011-08-04T15:12:25Z</time>
      </trkpt>
      <trkpt lat="45.76712" lon="4.94621">
        <ele>186</ele>
        <time>2011-08-04T15:12:38Z</time>
      </trkpt>
      <trkpt lat="45.76735" lon="4.94708">
        <ele>188</ele>
        <time>2011-08-04T15:12:48Z</time>
      </trkpt>
      <trkpt lat="45.76773" lon="4.9483">
        <ele>192</ele>
        <time>2011-08-04T15:13:02Z</time>
      </trkpt>
      <trkpt lat="45.76818" lon="4.94945">
        <ele>190</ele>
        <time>2011-08-04T15:13:15Z</time>
      </trkpt>
      <trkpt lat="45.76858" lon="4.95027">
        <ele>187</ele>
        <time>2011-08-04T15:13:25Z</time>
      </trkpt>
      <trkpt lat="45.76898" lon="4.95095">
        <ele>188</ele>
        <time>2011-08-04T15:13:34Z</time>
      </trkpt>
      <trkpt lat="45.76904" lon="4.95105">
        <ele>188</ele>
        <time>2011-08-04T15:13:37Z</time>
      </trkpt>
      <trkpt lat="45.7691" lon="4.95115">
        <ele>188</ele>
        <time>2011-08-04T15:13:42Z</time>
      </trkpt>
      <trkpt lat="45.76927" lon="4.95146">
        <ele>188</ele>
        <time>2011-08-04T15:13:48Z</time>
      </trkpt>
      <trkpt lat="45.76974" lon="4.95223">
        <ele>188</ele>
        <time>2011-08-04T15:13:59Z</time>
      </trkpt>
      <trkpt lat="45.7699" lon="4.9525">
        <ele>187</ele>
        <time>2011-08-04T15:14:03Z</time>
      </trkpt>
      <trkpt lat="45.77001" lon="4.95256">
        <ele>187</ele>
        <time>2011-08-04T15:14:05Z</time>
      </trkpt>
      <trkpt lat="45.77012" lon="4.95275">
        <ele>187</ele>
        <time>2011-08-04T15:14:09Z</time>
      </trkpt>
      <trkpt lat="45.77016" lon="4.95292">
        <ele>187</ele>
        <time>2011-08-04T15:14:12Z</time>
      </trkpt>
      <trkpt lat="45.77041" lon="4.95335">
        <ele>187</ele>
        <time>2011-08-04T15:14:20Z</time>
      </trkpt>
      <trkpt lat="45.77074" lon="4.95391">
        <ele>187</ele>
        <time>2011-08-04T15:14:29Z</time>
      </trkpt>
      <trkpt lat="45.77114" lon="4.95461">
        <ele>187</ele>
        <time>2011-08-04T15:14:39Z</time>
      </trkpt>
      <trkpt lat="45.77156" lon="4.9553">
        <ele>186</ele>
        <time>2011-08-04T15:14:50Z</time>
      </trkpt>
      <trkpt lat="45.77202" lon="4.95605">
        <ele>186</ele>
        <time>2011-08-04T15:15:02Z</time>
      </trkpt>
      <trkpt lat="45.77232" lon="4.95655">
        <ele>186</ele>
        <time>2011-08-04T15:15:10Z</time>
      </trkpt>
      <trkpt lat="45.77241" lon="4.95665">
        <ele>186</ele>
        <time>2011-08-04T15:15:12Z</time>
      </trkpt>
      <trkpt lat="45.77253" lon="4.95694">
        <ele>186</ele>
        <time>2011-08-04T15:15:16Z</time>
      </trkpt>
      <trkpt lat="45.77259" lon="4.95709">
        <ele>187</ele>
        <time>2011-08-04T15:15:18Z</time>
      </trkpt>
      <trkpt lat="45.77274" lon="4.95736">
        <ele>187</ele>
        <time>2011-08-04T15:15:24Z</time>
      </trkpt>
      <trkpt lat="45.77281" lon="4.95746">
        <ele>187</ele>
        <time>2011-08-04T15:15:30Z</time>
      </trkpt>
      <trkpt lat="45.77292" lon="4.95763">
        <ele>187</ele>
        <time>2011-08-04T15:15:36Z</time>
      </trkpt>
      <trkpt lat="45.77312" lon="4.95796">
        <ele>187</ele>
        <time>2011-08-04T15:15:42Z</time>
      </trkpt>
      <trkpt lat="45.7735" lon="4.9586">
        <ele>190</ele>
        <time>2011-08-04T15:15:52Z</time>
      </trkpt>
      <trkpt lat="45.774" lon="4.95942">
        <ele>191</ele>
        <time>2011-08-04T15:16:05Z</time>
      </trkpt>
      <trkpt lat="45.77452" lon="4.96037">
        <ele>193</ele>
        <time>2011-08-04T15:16:19Z</time>
      </trkpt>
      <trkpt lat="45.77496" lon="4.96134">
        <ele>194</ele>
        <time>2011-08-04T15:16:33Z</time>
      </trkpt>
      <trkpt lat="45.77521" lon="4.96199">
        <ele>195</ele>
        <time>2011-08-04T15:16:43Z</time>
      </trkpt>
      <trkpt lat="45.77548" lon="4.96271">
        <ele>197</ele>
        <time>2011-08-04T15:16:55Z</time>
      </trkpt>
      <trkpt lat="45.77579" lon="4.96347">
        <ele>199</ele>
        <time>2011-08-04T15:17:07Z</time>
      </trkpt>
      <trkpt lat="45.77607" lon="4.96417">
        <ele>201</ele>
        <time>2011-08-04T15:17:18Z</time>
      </trkpt>
      <trkpt lat="45.77642" lon="4.96504">
        <ele>201</ele>
        <time>2011-08-04T15:17:31Z</time>
      </trkpt>
      <trkpt lat="45.77678" lon="4.96596">
        <ele>199</ele>
        <time>2011-08-04T15:17:44Z</time>
      </trkpt>
      <trkpt lat="45.77708" lon="4.96667">
        <ele>199</ele>
        <time>2011-08-04T15:17:55Z</time>
      </trkpt>
      <trkpt lat="45.77729" lon="4.9672">
        <ele>198</ele>
        <time>2011-08-04T15:18:03Z</time>
      </trkpt>
      <trkpt lat="45.77731" lon="4.96725">
        <ele>198</ele>
        <time>2011-08-04T15:18:04Z</time>
      </trkpt>
      <trkpt lat="45.77743" lon="4.96793">
        <ele>198</ele>
        <time>2011-08-04T15:18:16Z</time>
      </trkpt>
      <trkpt lat="45.77747" lon="4.96821">
        <ele>196</ele>
        <time>2011-08-04T15:18:22Z</time>
      </trkpt>
      <trkpt lat="45.77753" lon="4.9688">
        <ele>192</ele>
        <time>2011-08-04T15:18:31Z</time>
      </trkpt>
      <trkpt lat="45.77752" lon="4.96971">
        <ele>192</ele>
        <time>2011-08-04T15:18:43Z</time>
      </trkpt>
      <trkpt lat="45.77742" lon="4.97058">
        <ele>194</ele>
        <time>2011-08-04T15:18:54Z</time>
      </trkpt>
      <trkpt lat="45.77723" lon="4.97139">
        <ele>188</ele>
        <time>2011-08-04T15:19:04Z</time>
      </trkpt>
      <trkpt lat="45.7771" lon="4.97178">
        <ele>186</ele>
        <time>2011-08-04T15:19:08Z</time>
      </trkpt>
      <trkpt lat="45.777" lon="4.97206">
        <ele>187</ele>
        <time>2011-08-04T15:19:11Z</time>
      </trkpt>
      <trkpt lat="45.77698" lon="4.9723">
        <ele>187</ele>
        <time>2011-08-04T15:19:15Z</time>
      </trkpt>
      <trkpt lat="45.77738" lon="4.97254">
        <ele>185</ele>
        <time>2011-08-04T15:19:22Z</time>
      </trkpt>
      <trkpt lat="45.77748" lon="4.97261">
        <ele>185</ele>
        <time>2011-08-04T15:19:24Z</time>
      </trkpt>
      <trkpt lat="45.77754" lon="4.97282">
        <ele>182</ele>
        <time>2011-08-04T15:19:28Z</time>
      </trkpt>
      <trkpt lat="45.77754" lon="4.97301">
        <ele>182</ele>
        <time>2011-08-04T15:19:30Z</time>
      </trkpt>
      <trkpt lat="45.77755" lon="4.97369">
        <ele>182</ele>
        <time>2011-08-04T15:19:35Z</time>
      </trkpt>
      <trkpt lat="45.77755" lon="4.97397">
        <ele>183</ele>
        <time>2011-08-04T15:19:37Z</time>
      </trkpt>
      <trkpt lat="45.77765" lon="4.975">
        <ele>182</ele>
        <time>2011-08-04T15:19:45Z</time>
      </trkpt>
      <trkpt lat="45.77775" lon="4.97573">
        <ele>182</ele>
        <time>2011-08-04T15:19:52Z</time>
      </trkpt>
      <trkpt lat="45.7778" lon="4.97627">
        <ele>182</ele>
        <time>2011-08-04T15:19:59Z</time>
      </trkpt>
      <trkpt lat="45.77782" lon="4.97634">
        <ele>182</ele>
        <time>2011-08-04T15:20:00Z</time>
      </trkpt>
      <trkpt lat="45.77822" lon="4.97718">
        <ele>184</ele>
        <time>2011-08-04T15:20:13Z</time>
      </trkpt>
      <trkpt lat="45.77881" lon="4.97809">
        <ele>184</ele>
        <time>2011-08-04T15:20:28Z</time>
      </trkpt>
      <trkpt lat="45.77919" lon="4.97866">
        <ele>184</ele>
        <time>2011-08-04T15:20:38Z</time>
      </trkpt>
      <trkpt lat="45.77932" lon="4.9792">
        <ele>186</ele>
        <time>2011-08-04T15:20:45Z</time>
      </trkpt>
      <trkpt lat="45.77934" lon="4.97959">
        <ele>185</ele>
        <time>2011-08-04T15:20:49Z</time>
      </trkpt>
      <trkpt lat="45.7793" lon="4.97998">
        <ele>186</ele>
        <time>2011-08-04T15:20:53Z</time>
      </trkpt>
      <trkpt lat="45.7792" lon="4.98036">
        <ele>185</ele>
        <time>2011-08-04T15:20:57Z</time>
      </trkpt>
      <trkpt lat="45.77915" lon="4.9809">
        <ele>187</ele>
        <time>2011-08-04T15:21:03Z</time>
      </trkpt>
      <trkpt lat="45.77913" lon="4.98106">
        <ele>187</ele>
        <time>2011-08-04T15:21:05Z</time>
      </trkpt>
      <trkpt lat="45.77911" lon="4.98226">
        <ele>187</ele>
        <time>2011-08-04T15:21:26Z</time>
      </trkpt>
      <trkpt lat="45.77911" lon="4.98326">
        <ele>188</ele>
        <time>2011-08-04T15:21:44Z</time>
      </trkpt>
      <trkpt lat="45.77923" lon="4.9836">
        <ele>185</ele>
        <time>2011-08-04T15:21:49Z</time>
      </trkpt>
      <trkpt lat="45.77941" lon="4.98434">
        <ele>185</ele>
        <time>2011-08-04T15:21:57Z</time>
      </trkpt>
      <trkpt lat="45.77938" lon="4.98478">
        <ele>186</ele>
        <time>2011-08-04T15:22:02Z</time>
      </trkpt>
      <trkpt lat="45.77939" lon="4.98507">
        <ele>188</ele>
        <time>2011-08-04T15:22:06Z</time>
      </trkpt>
      <trkpt lat="45.77952" lon="4.98517">
        <ele>187</ele>
        <time>2011-08-04T15:22:09Z</time>
      </trkpt>
      <trkpt lat="45.77974" lon="4.98541">
        <ele>187</ele>
        <time>2011-08-04T15:22:16Z</time>
      </trkpt>
      <trkpt lat="45.77983" lon="4.98577">
        <ele>189</ele>
        <time>2011-08-04T15:22:22Z</time>
      </trkpt>
      <trkpt lat="45.78015" lon="4.98632">
        <ele>186</ele>
        <time>2011-08-04T15:22:32Z</time>
      </trkpt>
      <trkpt lat="45.78052" lon="4.98685">
        <ele>186</ele>
        <time>2011-08-04T15:22:42Z</time>
      </trkpt>
      <trkpt lat="45.78291" lon="4.98895">
        <ele>181</ele>
        <time>2011-08-04T15:23:24Z</time>
      </trkpt>
      <trkpt lat="45.78326" lon="4.9893">
        <ele>182</ele>
        <time>2011-08-04T15:23:31Z</time>
      </trkpt>
      <trkpt lat="45.78332" lon="4.98953">
        <ele>184</ele>
        <time>2011-08-04T15:23:35Z</time>
      </trkpt>
      <trkpt lat="45.78319" lon="4.98967">
        <ele>185</ele>
        <time>2011-08-04T15:23:39Z</time>
      </trkpt>
      <trkpt lat="45.7832" lon="4.98983">
        <ele>185</ele>
        <time>2011-08-04T15:23:43Z</time>
      </trkpt>
      <trkpt lat="45.78381" lon="4.99049">
        <ele>187</ele>
        <time>2011-08-04T15:24:01Z</time>
      </trkpt>
      <trkpt lat="45.7844" lon="4.99082">
        <ele>187</ele>
        <time>2011-08-04T15:24:13Z</time>
      </trkpt>
      <trkpt lat="45.78486" lon="4.99091">
        <ele>190</ele>
        <time>2011-08-04T15:24:21Z</time>
      </trkpt>
      <trkpt lat="45.78554" lon="4.99074">
        <ele>186</ele>
        <time>2011-08-04T15:24:33Z</time>
      </trkpt>
      <trkpt lat="45.78621" lon="4.99045">
        <ele>186</ele>
        <time>2011-08-04T15:24:45Z</time>
      </trkpt>
      <trkpt lat="45.78687" lon="4.98988">
        <ele>184</ele>
        <time>2011-08-04T15:24:56Z</time>
      </trkpt>
      <trkpt lat="45.78739" lon="4.98955">
        <ele>183</ele>
        <time>2011-08-04T15:25:04Z</time>
      </trkpt>
      <trkpt lat="45.78751" lon="4.98942">
        <ele>184</ele>
        <time>2011-08-04T15:25:07Z</time>
      </trkpt>
      <trkpt lat="45.7878" lon="4.98933">
        <ele>185</ele>
        <time>2011-08-04T15:25:13Z</time>
      </trkpt>
      <trkpt lat="45.78826" lon="4.98929">
        <ele>185</ele>
        <time>2011-08-04T15:25:22Z</time>
      </trkpt>
      <trkpt lat="45.7885" lon="4.98924">
        <ele>184</ele>
        <time>2011-08-04T15:25:25Z</time>
      </trkpt>
      <trkpt lat="45.78951" lon="4.98922">
        <ele>181</ele>
        <time>2011-08-04T15:25:39Z</time>
      </trkpt>
      <trkpt lat="45.78995" lon="4.98937">
        <ele>181</ele>
        <time>2011-08-04T15:25:48Z</time>
      </trkpt>
      <trkpt lat="45.7906" lon="4.98954">
        <ele>181</ele>
        <time>2011-08-04T15:26:02Z</time>
      </trkpt>
      <trkpt lat="45.79099" lon="4.98976">
        <ele>181</ele>
        <time>2011-08-04T15:26:10Z</time>
      </trkpt>
      <trkpt lat="45.79173" lon="4.99001">
        <ele>182</ele>
        <time>2011-08-04T15:26:25Z</time>
      </trkpt>
      <trkpt lat="45.79192" lon="4.9901">
        <ele>182</ele>
        <time>2011-08-04T15:26:29Z</time>
      </trkpt>
      <trkpt lat="45.79229" lon="4.9906">
        <ele>182</ele>
        <time>2011-08-04T15:26:39Z</time>
      </trkpt>
      <trkpt lat="45.79238" lon="4.99075">
        <ele>182</ele>
        <time>2011-08-04T15:26:42Z</time>
      </trkpt>
      <trkpt lat="45.79282" lon="4.99109">
        <ele>182</ele>
        <time>2011-08-04T15:26:51Z</time>
      </trkpt>
      <trkpt lat="45.79406" lon="4.99161">
        <ele>185</ele>
        <time>2011-08-04T15:27:15Z</time>
      </trkpt>
      <trkpt lat="45.79538" lon="4.9911">
        <ele>180</ele>
        <time>2011-08-04T15:27:43Z</time>
      </trkpt>
      <trkpt lat="45.79573" lon="4.99101">
        <ele>181</ele>
        <time>2011-08-04T15:27:51Z</time>
      </trkpt>
      <trkpt lat="45.79583" lon="4.99114">
        <ele>181</ele>
        <time>2011-08-04T15:27:56Z</time>
      </trkpt>
      <trkpt lat="45.79584" lon="4.99158">
        <ele>182</ele>
        <time>2011-08-04T15:28:03Z</time>
      </trkpt>
      <trkpt lat="45.79582" lon="4.99181">
        <ele>182</ele>
        <time>2011-08-04T15:28:06Z</time>
      </trkpt>
      <trkpt lat="45.79566" lon="4.9926">
        <ele>182</ele>
        <time>2011-08-04T15:28:16Z</time>
      </trkpt>
      <trkpt lat="45.79552" lon="4.99323">
        <ele>181</ele>
        <time>2011-08-04T15:28:25Z</time>
      </trkpt>
      <trkpt lat="45.79551" lon="4.99343">
        <ele>180</ele>
        <time>2011-08-04T15:28:28Z</time>
      </trkpt>
      <trkpt lat="45.7956" lon="4.99359">
        <ele>180</ele>
        <time>2011-08-04T15:28:31Z</time>
      </trkpt>
      <trkpt lat="45.79872" lon="4.99666">
        <ele>177</ele>
        <time>2011-08-04T15:29:29Z</time>
      </trkpt>
      <trkpt lat="45.79898" lon="4.99665">
        <ele>178</ele>
        <time>2011-08-04T15:29:34Z</time>
      </trkpt>
      <trkpt lat="45.79928" lon="4.99507">
        <ele>177</ele>
        <time>2011-08-04T15:29:41Z</time>
      </trkpt>
      <trkpt lat="45.79933" lon="4.99502">
        <ele>177</ele>
        <time>2011-08-04T15:29:42Z</time>
      </trkpt>
      <trkpt lat="45.79976" lon="4.99454">
        <ele>177</ele>
        <time>2011-08-04T15:29:50Z</time>
      </trkpt>
      <trkpt lat="45.80018" lon="4.99407">
        <ele>177</ele>
        <time>2011-08-04T15:29:58Z</time>
      </trkpt>
      <trkpt lat="45.80147" lon="4.99221">
        <ele>178</ele>
        <time>2011-08-04T15:30:26Z</time>
      </trkpt>
      <trkpt lat="45.80172" lon="4.99174">
        <ele>176</ele>
        <time>2011-08-04T15:30:33Z</time>
      </trkpt>
      <trkpt lat="45.802" lon="4.9907">
        <ele>176</ele>
        <time>2011-08-04T15:30:46Z</time>
      </trkpt>
      <trkpt lat="45.80211" lon="4.98992">
        <ele>177</ele>
        <time>2011-08-04T15:30:55Z</time>
      </trkpt>
      <trkpt lat="45.80208" lon="4.98938">
        <ele>177</ele>
        <time>2011-08-04T15:31:02Z</time>
      </trkpt>
      <trkpt lat="45.80198" lon="4.98808">
        <ele>178</ele>
        <time>2011-08-04T15:31:21Z</time>
      </trkpt>
      <trkpt lat="45.80167" lon="4.98609">
        <ele>179</ele>
        <time>2011-08-04T15:31:50Z</time>
      </trkpt>
      <trkpt lat="45.80186" lon="4.98579">
        <ele>179</ele>
        <time>2011-08-04T15:31:54Z</time>
      </trkpt>
      <trkpt lat="45.80203" lon="4.98527">
        <ele>180</ele>
        <time>2011-08-04T15:32:00Z</time>
      </trkpt>
      <trkpt lat="45.80237" lon="4.98462">
        <ele>181</ele>
        <time>2011-08-04T15:32:09Z</time>
      </trkpt>
      <trkpt lat="45.80333" lon="4.98254">
        <ele>176</ele>
        <time>2011-08-04T15:32:58Z</time>
      </trkpt>
      <trkpt lat="45.80353" lon="4.98245">
        <ele>175</ele>
        <time>2011-08-04T15:34:37Z</time>
      </trkpt>
      <trkpt lat="45.80423" lon="4.98153">
        <ele>173</ele>
        <time>2011-08-04T15:34:46Z</time>
      </trkpt>
      <trkpt lat="45.80449" lon="4.98154">
        <ele>173</ele>
        <time>2011-08-04T15:34:55Z</time>
      </trkpt>
      <trkpt lat="45.80473" lon="4.98153">
        <ele>172</ele>
        <time>2011-08-04T15:35:02Z</time>
      </trkpt>
      <trkpt lat="45.80544" lon="4.98068">
        <ele>170</ele>
        <time>2011-08-04T15:35:43Z</time>
      </trkpt>
      <trkpt lat="45.80564" lon="4.98085">
        <ele>171</ele>
        <time>2011-08-04T15:35:54Z</time>
      </trkpt>
      <trkpt lat="45.80568" lon="4.98091">
        <ele>171</ele>
        <time>2011-08-04T15:35:56Z</time>
      </trkpt>
      <trkpt lat="45.80515" lon="4.98181">
        <ele>171</ele>
        <time>2011-08-04T15:36:23Z</time>
      </trkpt>
      <trkpt lat="45.80528" lon="4.98206">
        <ele>172</ele>
        <time>2011-08-04T15:36:29Z</time>
      </trkpt>
      <trkpt lat="45.80586" lon="4.98224">
        <ele>174</ele>
        <time>2011-08-04T15:36:45Z</time>
      </trkpt>
      <trkpt lat="45.80745" lon="4.98393">
        <ele>175</ele>
        <time>2011-08-04T15:37:37Z</time>
      </trkpt>
      <trkpt lat="45.80796" lon="4.98452">
        <ele>173</ele>
        <time>2011-08-04T15:37:52Z</time>
      </trkpt>
      <trkpt lat="45.80846" lon="4.98535">
        <ele>173</ele>
        <time>2011-08-04T15:38:12Z</time>
      </trkpt>
      <trkpt lat="45.80877" lon="4.98585">
        <ele>173</ele>
        <time>2011-08-04T15:38:24Z</time>
      </trkpt>
      <trkpt lat="45.80894" lon="4.98615">
        <ele>174</ele>
        <time>2011-08-04T15:38:32Z</time>
      </trkpt>
      <trkpt lat="45.8089" lon="4.98631">
        <ele>173</ele>
        <time>2011-08-04T15:38:36Z</time>
      </trkpt>
      <trkpt lat="45.80876" lon="4.98679">
        <ele>173</ele>
        <time>2011-08-04T15:38:47Z</time>
      </trkpt>
      <trkpt lat="45.80862" lon="4.98745">
        <ele>174</ele>
        <time>2011-08-04T15:39:01Z</time>
      </trkpt>
      <trkpt lat="45.80849" lon="4.98796">
        <ele>175</ele>
        <time>2011-08-04T15:39:08Z</time>
      </trkpt>
      <trkpt lat="45.80828" lon="4.98824">
        <ele>174</ele>
        <time>2011-08-04T15:39:14Z</time>
      </trkpt>
      <trkpt lat="45.80811" lon="4.98827">
        <ele>174</ele>
        <time>2011-08-04T15:39:18Z</time>
      </trkpt>
      <trkpt lat="45.80785" lon="4.98822">
        <ele>174</ele>
        <time>2011-08-04T15:39:24Z</time>
      </trkpt>
      <trkpt lat="45.80755" lon="4.98805">
        <ele>174</ele>
        <time>2011-08-04T15:39:30Z</time>
      </trkpt>
      <trkpt lat="45.80714" lon="4.98781">
        <ele>174</ele>
        <time>2011-08-04T15:39:36Z</time>
      </trkpt>
      <trkpt lat="45.80701" lon="4.98773">
        <ele>174</ele>
        <time>2011-08-04T15:39:38Z</time>
      </trkpt>
      <trkpt lat="45.80687" lon="4.9876">
        <ele>175</ele>
        <time>2011-08-04T15:39:41Z</time>
      </trkpt>
      <trkpt lat="45.80669" lon="4.98746">
        <ele>174</ele>
        <time>2011-08-04T15:39:45Z</time>
      </trkpt>
      <trkpt lat="45.80624" lon="4.98702">
        <ele>174</ele>
        <time>2011-08-04T15:39:59Z</time>
      </trkpt>
      <trkpt lat="45.8061" lon="4.98688">
        <ele>174</ele>
        <time>2011-08-04T15:40:03Z</time>
      </trkpt>
      <trkpt lat="45.80528" lon="4.98578">
        <ele>172</ele>
        <time>2011-08-04T15:40:27Z</time>
      </trkpt>
      <trkpt lat="45.80522" lon="4.98562">
        <ele>172</ele>
        <time>2011-08-04T15:40:31Z</time>
      </trkpt>
      <trkpt lat="45.80513" lon="4.98557">
        <ele>172</ele>
        <time>2011-08-04T15:40:34Z</time>
      </trkpt>
      <trkpt lat="45.80508" lon="4.9855">
        <ele>172</ele>
        <time>2011-08-04T15:40:37Z</time>
      </trkpt>
      <trkpt lat="45.80506" lon="4.98532">
        <ele>171</ele>
        <time>2011-08-04T15:40:45Z</time>
      </trkpt>
      <trkpt lat="45.80502" lon="4.98521">
        <ele>171</ele>
        <time>2011-08-04T15:41:00Z</time>
      </trkpt>
      <trkpt lat="45.80487" lon="4.98505">
        <ele>172</ele>
        <time>2011-08-04T15:41:07Z</time>
      </trkpt>
      <trkpt lat="45.80456" lon="4.98477">
        <ele>172</ele>
        <time>2011-08-04T15:41:15Z</time>
      </trkpt>
      <trkpt lat="45.80423" lon="4.98433">
        <ele>172</ele>
        <time>2011-08-04T15:41:24Z</time>
      </trkpt>
      <trkpt lat="45.80418" lon="4.98429">
        <ele>171</ele>
        <time>2011-08-04T15:41:26Z</time>
      </trkpt>
      <trkpt lat="45.80412" lon="4.98435">
        <ele>173</ele>
        <time>2011-08-04T15:41:29Z</time>
      </trkpt>
      <trkpt lat="45.80407" lon="4.98449">
        <ele>174</ele>
        <time>2011-08-04T15:41:33Z</time>
      </trkpt>
      <trkpt lat="45.80392" lon="4.98475">
        <ele>175</ele>
        <time>2011-08-04T15:41:41Z</time>
      </trkpt>
      <trkpt lat="45.80386" lon="4.98485">
        <ele>175</ele>
        <time>2011-08-04T15:41:44Z</time>
      </trkpt>
      <trkpt lat="45.8039" lon="4.98521">
        <ele>177</ele>
        <time>2011-08-04T15:41:53Z</time>
      </trkpt>
      <trkpt lat="45.80383" lon="4.98528">
        <ele>177</ele>
        <time>2011-08-04T15:41:56Z</time>
      </trkpt>
      <trkpt lat="45.80379" lon="4.98528">
        <ele>177</ele>
        <time>2011-08-04T15:41:58Z</time>
      </trkpt>
      <trkpt lat="45.80374" lon="4.98529">
        <ele>177</ele>
        <time>2011-08-04T15:42:02Z</time>
      </trkpt>
      <trkpt lat="45.80368" lon="4.98531">
        <ele>177</ele>
        <time>2011-08-04T15:42:13Z</time>
      </trkpt>
      <trkpt lat="45.80363" lon="4.98534">
        <ele>177</ele>
        <time>2011-08-04T15:42:26Z</time>
      </trkpt>
      <trkpt lat="45.80356" lon="4.98571">
        <ele>177</ele>
        <time>2011-08-04T15:42:40Z</time>
      </trkpt>
      <trkpt lat="45.80342" lon="4.98657">
        <ele>176</ele>
        <time>2011-08-04T15:43:01Z</time>
      </trkpt>
      <trkpt lat="45.80338" lon="4.987">
        <ele>177</ele>
        <time>2011-08-04T15:43:09Z</time>
      </trkpt>
      <trkpt lat="45.80342" lon="4.9875">
        <ele>177</ele>
        <time>2011-08-04T15:43:21Z</time>
      </trkpt>
      <trkpt lat="45.80332" lon="4.9876">
        <ele>177</ele>
        <time>2011-08-04T15:43:26Z</time>
      </trkpt>
      <trkpt lat="45.80319" lon="4.98789">
        <ele>178</ele>
        <time>2011-08-04T15:43:33Z</time>
      </trkpt>
      <trkpt lat="45.80307" lon="4.98823">
        <ele>178</ele>
        <time>2011-08-04T15:43:41Z</time>
      </trkpt>
      <trkpt lat="45.8028" lon="4.98886">
        <ele>179</ele>
        <time>2011-08-04T15:43:59Z</time>
      </trkpt>
      <trkpt lat="45.80276" lon="4.98888">
        <ele>179</ele>
        <time>2011-08-04T15:44:01Z</time>
      </trkpt>
      <trkpt lat="45.80271" lon="4.98893">
        <ele>179</ele>
        <time>2011-08-04T15:44:04Z</time>
      </trkpt>
      <trkpt lat="45.80265" lon="4.98938">
        <ele>179</ele>
        <time>2011-08-04T15:44:13Z</time>
      </trkpt>
      <trkpt lat="45.80263" lon="4.9897">
        <ele>178</ele>
        <time>2011-08-04T15:44:19Z</time>
      </trkpt>
      <trkpt lat="45.80267" lon="4.99015">
        <ele>178</ele>
        <time>2011-08-04T15:44:27Z</time>
      </trkpt>
      <trkpt lat="45.80245" lon="4.99068">
        <ele>177</ele>
        <time>2011-08-04T15:44:39Z</time>
      </trkpt>
      <trkpt lat="45.80241" lon="4.99113">
        <ele>177</ele>
        <time>2011-08-04T15:44:45Z</time>
      </trkpt>
      <trkpt lat="45.8024" lon="4.99127">
        <ele>176</ele>
        <time>2011-08-04T15:44:47Z</time>
      </trkpt>
      <trkpt lat="45.80234" lon="4.99194">
        <ele>177</ele>
        <time>2011-08-04T15:44:58Z</time>
      </trkpt>
      <trkpt lat="45.80193" lon="4.99535">
        <ele>178</ele>
        <time>2011-08-04T15:46:13Z</time>
      </trkpt>
      <trkpt lat="45.80221" lon="4.99581">
        <ele>177</ele>
        <time>2011-08-04T15:46:27Z</time>
      </trkpt>
      <trkpt lat="45.80275" lon="4.99651">
        <ele>177</ele>
        <time>2011-08-04T15:47:00Z</time>
      </trkpt>
      <trkpt lat="45.80288" lon="4.99663">
        <ele>177</ele>
        <time>2011-08-04T15:47:07Z</time>
      </trkpt>
      <trkpt lat="45.803" lon="4.99667">
        <ele>178</ele>
        <time>2011-08-04T15:47:16Z</time>
      </trkpt>
      <trkpt lat="45.80348" lon="4.9964">
        <ele>176</ele>
        <time>2011-08-04T15:48:32Z</time>
      </trkpt>
      <trkpt lat="45.80345" lon="4.99642">
        <ele>177</ele>
        <time>2011-08-04T15:49:16Z</time>
      </trkpt>
      <trkpt lat="45.80346" lon="4.99645">
        <ele>177</ele>
        <time>2011-08-04T15:49:28Z</time>
      </trkpt>
      <trkpt lat="45.80358" lon="4.99667">
        <ele>177</ele>
        <time>2011-08-04T15:49:56Z</time>
      </trkpt>
      <trkpt lat="45.80374" lon="4.99686">
        <ele>177</ele>
        <time>2011-08-04T15:50:06Z</time>
      </trkpt>
      <trkpt lat="45.80399" lon="4.99694">
        <ele>176</ele>
        <time>2011-08-04T15:50:16Z</time>
      </trkpt>
      <trkpt lat="45.80419" lon="4.99684">
        <ele>175</ele>
        <time>2011-08-04T15:50:25Z</time>
      </trkpt>
      <trkpt lat="45.80425" lon="4.99684">
        <ele>175</ele>
        <time>2011-08-04T15:50:28Z</time>
      </trkpt>
      <trkpt lat="45.80435" lon="4.99706">
        <ele>175</ele>
        <time>2011-08-04T15:50:38Z</time>
      </trkpt>
      <trkpt lat="45.80435" lon="4.99712">
        <ele>176</ele>
        <time>2011-08-04T15:50:41Z</time>
      </trkpt>
      <trkpt lat="45.80423" lon="4.9973">
        <ele>176</ele>
        <time>2011-08-04T15:50:53Z</time>
      </trkpt>
      <trkpt lat="45.80407" lon="4.9975">
        <ele>177</ele>
        <time>2011-08-04T15:51:05Z</time>
      </trkpt>
      <trkpt lat="45.80386" lon="4.99779">
        <ele>177</ele>
        <time>2011-08-04T15:51:17Z</time>
      </trkpt>
      <trkpt lat="45.80364" lon="4.99819">
        <ele>178</ele>
        <time>2011-08-04T15:51:28Z</time>
      </trkpt>
      <trkpt lat="45.80343" lon="4.99871">
        <ele>177</ele>
        <time>2011-08-04T15:51:39Z</time>
      </trkpt>
      <trkpt lat="45.80323" lon="5.00007">
        <ele>177</ele>
        <time>2011-08-04T15:52:03Z</time>
      </trkpt>
      <trkpt lat="45.80322" lon="5.0002">
        <ele>177</ele>
        <time>2011-08-04T15:52:05Z</time>
      </trkpt>
      <trkpt lat="45.8032" lon="5.00095">
        <ele>178</ele>
        <time>2011-08-04T15:52:17Z</time>
      </trkpt>
      <trkpt lat="45.80336" lon="5.00185">
        <ele>178</ele>
        <time>2011-08-04T15:52:32Z</time>
      </trkpt>
      <trkpt lat="45.80371" lon="5.00245">
        <ele>178</ele>
        <time>2011-08-04T15:52:44Z</time>
      </trkpt>
      <trkpt lat="45.80406" lon="5.00274">
        <ele>177</ele>
        <time>2011-08-04T15:52:53Z</time>
      </trkpt>
      <trkpt lat="45.80406" lon="5.00295">
        <ele>176</ele>
        <time>2011-08-04T15:52:57Z</time>
      </trkpt>
      <trkpt lat="45.80394" lon="5.00329">
        <ele>175</ele>
        <time>2011-08-04T15:53:03Z</time>
      </trkpt>
      <trkpt lat="45.80381" lon="5.00354">
        <ele>173</ele>
        <time>2011-08-04T15:53:07Z</time>
      </trkpt>
      <trkpt lat="45.80372" lon="5.00386">
        <ele>173</ele>
        <time>2011-08-04T15:53:11Z</time>
      </trkpt>
      <trkpt lat="45.80367" lon="5.00402">
        <ele>173</ele>
        <time>2011-08-04T15:53:13Z</time>
      </trkpt>
      <trkpt lat="45.80358" lon="5.00468">
        <ele>173</ele>
        <time>2011-08-04T15:53:22Z</time>
      </trkpt>
      <trkpt lat="45.80355" lon="5.00544">
        <ele>174</ele>
        <time>2011-08-04T15:53:32Z</time>
      </trkpt>
      <trkpt lat="45.80355" lon="5.00551">
        <ele>175</ele>
        <time>2011-08-04T15:53:33Z</time>
      </trkpt>
      <trkpt lat="45.80369" lon="5.00582">
        <ele>175</ele>
        <time>2011-08-04T15:53:38Z</time>
      </trkpt>
      <trkpt lat="45.80399" lon="5.00611">
        <ele>175</ele>
        <time>2011-08-04T15:53:45Z</time>
      </trkpt>
      <trkpt lat="45.80501" lon="5.00721">
        <ele>171</ele>
        <time>2011-08-04T15:54:10Z</time>
      </trkpt>
      <trkpt lat="45.8051" lon="5.00737">
        <ele>172</ele>
        <time>2011-08-04T15:54:13Z</time>
      </trkpt>
      <trkpt lat="45.80523" lon="5.00781">
        <ele>174</ele>
        <time>2011-08-04T15:54:20Z</time>
      </trkpt>
      <trkpt lat="45.80553" lon="5.00871">
        <ele>176</ele>
        <time>2011-08-04T15:54:33Z</time>
      </trkpt>
      <trkpt lat="45.80556" lon="5.00877">
        <ele>176</ele>
        <time>2011-08-04T15:54:34Z</time>
      </trkpt>
      <trkpt lat="45.80574" lon="5.00892">
        <ele>176</ele>
        <time>2011-08-04T15:54:38Z</time>
      </trkpt>
      <trkpt lat="45.80596" lon="5.00899">
        <ele>176</ele>
        <time>2011-08-04T15:54:42Z</time>
      </trkpt>
      <trkpt lat="45.80632" lon="5.00889">
        <ele>176</ele>
        <time>2011-08-04T15:54:49Z</time>
      </trkpt>
      <trkpt lat="45.80637" lon="5.00887">
        <ele>176</ele>
        <time>2011-08-04T15:54:50Z</time>
      </trkpt>
      <trkpt lat="45.80648" lon="5.00863">
        <ele>176</ele>
        <time>2011-08-04T15:54:56Z</time>
      </trkpt>
      <trkpt lat="45.80657" lon="5.00833">
        <ele>175</ele>
        <time>2011-08-04T15:55:03Z</time>
      </trkpt>
      <trkpt lat="45.80674" lon="5.00761">
        <ele>174</ele>
        <time>2011-08-04T15:55:14Z</time>
      </trkpt>
      <trkpt lat="45.8068" lon="5.00714">
        <ele>175</ele>
        <time>2011-08-04T15:55:25Z</time>
      </trkpt>
      <trkpt lat="45.80682" lon="5.00686">
        <ele>175</ele>
        <time>2011-08-04T15:55:33Z</time>
      </trkpt>
      <trkpt lat="45.80689" lon="5.00656">
        <ele>175</ele>
        <time>2011-08-04T15:55:41Z</time>
      </trkpt>
      <trkpt lat="45.80687" lon="5.00621">
        <ele>175</ele>
        <time>2011-08-04T15:55:48Z</time>
      </trkpt>
      <trkpt lat="45.80688" lon="5.00585">
        <ele>174</ele>
        <time>2011-08-04T15:55:57Z</time>
      </trkpt>
      <trkpt lat="45.80698" lon="5.00562">
        <ele>174</ele>
        <time>2011-08-04T15:56:02Z</time>
      </trkpt>
      <trkpt lat="45.80703" lon="5.00554">
        <ele>174</ele>
        <time>2011-08-04T15:56:04Z</time>
      </trkpt>
      <trkpt lat="45.80708" lon="5.0055">
        <ele>174</ele>
        <time>2011-08-04T15:56:06Z</time>
      </trkpt>
      <trkpt lat="45.80715" lon="5.00559">
        <ele>175</ele>
        <time>2011-08-04T15:56:09Z</time>
      </trkpt>
      <trkpt lat="45.80729" lon="5.0057">
        <ele>175</ele>
        <time>2011-08-04T15:56:14Z</time>
      </trkpt>
      <trkpt lat="45.80751" lon="5.00575">
        <ele>175</ele>
        <time>2011-08-04T15:56:19Z</time>
      </trkpt>
      <trkpt lat="45.80764" lon="5.00579">
        <ele>175</ele>
        <time>2011-08-04T15:56:22Z</time>
      </trkpt>
      <trkpt lat="45.80808" lon="5.00585">
        <ele>176</ele>
        <time>2011-08-04T15:56:31Z</time>
      </trkpt>
      <trkpt lat="45.80851" lon="5.0061">
        <ele>177</ele>
        <time>2011-08-04T15:56:40Z</time>
      </trkpt>
      <trkpt lat="45.80875" lon="5.00625">
        <ele>178</ele>
        <time>2011-08-04T15:56:45Z</time>
      </trkpt>
      <trkpt lat="45.80884" lon="5.0064">
        <ele>178</ele>
        <time>2011-08-04T15:56:49Z</time>
      </trkpt>
      <trkpt lat="45.80847" lon="5.00778">
        <ele>179</ele>
        <time>2011-08-04T15:57:27Z</time>
      </trkpt>
      <trkpt lat="45.80833" lon="5.00834">
        <ele>181</ele>
        <time>2011-08-04T15:57:40Z</time>
      </trkpt>
      <trkpt lat="45.8082" lon="5.00883">
        <ele>179</ele>
        <time>2011-08-04T15:57:50Z</time>
      </trkpt>
      <trkpt lat="45.80801" lon="5.00998">
        <ele>179</ele>
        <time>2011-08-04T15:58:14Z</time>
      </trkpt>
      <trkpt lat="45.80839" lon="5.01363">
        <ele>179</ele>
        <time>2011-08-04T15:59:25Z</time>
      </trkpt>
      <trkpt lat="45.80804" lon="5.01582">
        <ele>179</ele>
        <time>2011-08-04T15:59:57Z</time>
      </trkpt>
      <trkpt lat="45.80762" lon="5.0172">
        <ele>179</ele>
        <time>2011-08-04T16:00:22Z</time>
      </trkpt>
      <trkpt lat="45.80762" lon="5.0172">
        <ele>179</ele>
        <time>2011-08-04T16:00:26Z</time>
      </trkpt>
      <trkpt lat="45.80761" lon="5.0172">
        <ele>179</ele>
        <time>2011-08-04T16:00:38Z</time>
      </trkpt>
      <trkpt lat="45.80751" lon="5.01726">
        <ele>179</ele>
        <time>2011-08-04T16:01:50Z</time>
      </trkpt>
      <trkpt lat="45.80728" lon="5.0173">
        <ele>180</ele>
        <time>2011-08-04T16:01:58Z</time>
      </trkpt>
      <trkpt lat="45.80669" lon="5.01777">
        <ele>180</ele>
        <time>2011-08-04T16:02:13Z</time>
      </trkpt>
      <trkpt lat="45.80649" lon="5.018">
        <ele>180</ele>
        <time>2011-08-04T16:02:18Z</time>
      </trkpt>
      <trkpt lat="45.80551" lon="5.01973">
        <ele>179</ele>
        <time>2011-08-04T16:02:48Z</time>
      </trkpt>
      <trkpt lat="45.80488" lon="5.02053">
        <ele>180</ele>
        <time>2011-08-04T16:03:04Z</time>
      </trkpt>
      <trkpt lat="45.80429" lon="5.02117">
        <ele>182</ele>
        <time>2011-08-04T16:03:17Z</time>
      </trkpt>
      <trkpt lat="45.80387" lon="5.0218">
        <ele>183</ele>
        <time>2011-08-04T16:03:28Z</time>
      </trkpt>
      <trkpt lat="45.80353" lon="5.02282">
        <ele>181</ele>
        <time>2011-08-04T16:03:45Z</time>
      </trkpt>
      <trkpt lat="45.80353" lon="5.02313">
        <ele>181</ele>
        <time>2011-08-04T16:03:53Z</time>
      </trkpt>
      <trkpt lat="45.80348" lon="5.02362">
        <ele>181</ele>
        <time>2011-08-04T16:04:04Z</time>
      </trkpt>
      <trkpt lat="45.80347" lon="5.02388">
        <ele>181</ele>
        <time>2011-08-04T16:04:09Z</time>
      </trkpt>
      <trkpt lat="45.80346" lon="5.02442">
        <ele>181</ele>
        <time>2011-08-04T16:04:19Z</time>
      </trkpt>
      <trkpt lat="45.80344" lon="5.02484">
        <ele>181</ele>
        <time>2011-08-04T16:04:27Z</time>
      </trkpt>
      <trkpt lat="45.80328" lon="5.02557">
        <ele>181</ele>
        <time>2011-08-04T16:04:40Z</time>
      </trkpt>
      <trkpt lat="45.80425" lon="5.02903">
        <ele>181</ele>
        <time>2011-08-04T16:05:37Z</time>
      </trkpt>
      <trkpt lat="45.80453" lon="5.03087">
        <ele>179</ele>
        <time>2011-08-04T16:06:07Z</time>
      </trkpt>
      <trkpt lat="45.80498" lon="5.03064">
        <ele>179</ele>
        <time>2011-08-04T16:06:12Z</time>
      </trkpt>
      <trkpt lat="45.80514" lon="5.03068">
        <ele>179</ele>
        <time>2011-08-04T16:06:15Z</time>
      </trkpt>
      <trkpt lat="45.80599" lon="5.03137">
        <ele>180</ele>
        <time>2011-08-04T16:06:36Z</time>
      </trkpt>
      <trkpt lat="45.80635" lon="5.03179">
        <ele>181</ele>
        <time>2011-08-04T16:06:46Z</time>
      </trkpt>
      <trkpt lat="45.80636" lon="5.03212">
        <ele>181</ele>
        <time>2011-08-04T16:06:54Z</time>
      </trkpt>
      <trkpt lat="45.80623" lon="5.03229">
        <ele>181</ele>
        <time>2011-08-04T16:07:03Z</time>
      </trkpt>
      <trkpt lat="45.8062" lon="5.03235">
        <ele>181</ele>
        <time>2011-08-04T16:07:05Z</time>
      </trkpt>
      <trkpt lat="45.80617" lon="5.03269">
        <ele>182</ele>
        <time>2011-08-04T16:07:12Z</time>
      </trkpt>
      <trkpt lat="45.80604" lon="5.03278">
        <ele>182</ele>
        <time>2011-08-04T16:07:17Z</time>
      </trkpt>
      <trkpt lat="45.80585" lon="5.0328">
        <ele>182</ele>
        <time>2011-08-04T16:07:23Z</time>
      </trkpt>
      <trkpt lat="45.8058" lon="5.03281">
        <ele>182</ele>
        <time>2011-08-04T16:07:25Z</time>
      </trkpt>
      <trkpt lat="45.80554" lon="5.03282">
        <ele>182</ele>
        <time>2011-08-04T16:07:33Z</time>
      </trkpt>
      <trkpt lat="45.80536" lon="5.03284">
        <ele>182</ele>
        <time>2011-08-04T16:07:40Z</time>
      </trkpt>
      <trkpt lat="45.80528" lon="5.03284">
        <ele>182</ele>
        <time>2011-08-04T16:07:43Z</time>
      </trkpt>
      <trkpt lat="45.80525" lon="5.03293">
        <ele>182</ele>
        <time>2011-08-04T16:07:47Z</time>
      </trkpt>
      <trkpt lat="45.80527" lon="5.03318">
        <ele>182</ele>
        <time>2011-08-04T16:07:56Z</time>
      </trkpt>
      <trkpt lat="45.8054" lon="5.03348">
        <ele>182</ele>
        <time>2011-08-04T16:08:08Z</time>
      </trkpt>
      <trkpt lat="45.80556" lon="5.034">
        <ele>182</ele>
        <time>2011-08-04T16:08:23Z</time>
      </trkpt>
      <trkpt lat="45.80574" lon="5.03463">
        <ele>183</ele>
        <time>2011-08-04T16:08:38Z</time>
      </trkpt>
      <trkpt lat="45.80577" lon="5.03469">
        <ele>183</ele>
        <time>2011-08-04T16:08:40Z</time>
      </trkpt>
      <trkpt lat="45.80553" lon="5.03644">
        <ele>184</ele>
        <time>2011-08-04T16:09:22Z</time>
      </trkpt>
      <trkpt lat="45.80537" lon="5.03629">
        <ele>183</ele>
        <time>2011-08-04T16:09:29Z</time>
      </trkpt>
      <trkpt lat="45.80539" lon="5.03618">
        <ele>183</ele>
        <time>2011-08-04T16:09:32Z</time>
      </trkpt>
      <trkpt lat="45.80541" lon="5.03614">
        <ele>183</ele>
        <time>2011-08-04T16:09:39Z</time>
      </trkpt>
      <trkpt lat="45.80536" lon="5.03602">
        <ele>183</ele>
        <time>2011-08-04T16:10:12Z</time>
      </trkpt>
      <trkpt lat="45.80528" lon="5.03595">
        <ele>183</ele>
        <time>2011-08-04T16:10:17Z</time>
      </trkpt>
      <trkpt lat="45.80516" lon="5.03606">
        <ele>183</ele>
        <time>2011-08-04T16:10:24Z</time>
      </trkpt>
      <trkpt lat="45.80505" lon="5.03622">
        <ele>183</ele>
        <time>2011-08-04T16:10:31Z</time>
      </trkpt>
      <trkpt lat="45.80502" lon="5.03672">
        <ele>182</ele>
        <time>2011-08-04T16:10:44Z</time>
      </trkpt>
      <trkpt lat="45.80503" lon="5.03717">
        <ele>183</ele>
        <time>2011-08-04T16:10:53Z</time>
      </trkpt>
      <trkpt lat="45.80509" lon="5.03782">
        <ele>182</ele>
        <time>2011-08-04T16:11:04Z</time>
      </trkpt>
      <trkpt lat="45.80511" lon="5.03802">
        <ele>182</ele>
        <time>2011-08-04T16:11:07Z</time>
      </trkpt>
      <trkpt lat="45.80511" lon="5.03827">
        <ele>182</ele>
        <time>2011-08-04T16:11:11Z</time>
      </trkpt>
      <trkpt lat="45.80523" lon="5.03854">
        <ele>182</ele>
        <time>2011-08-04T16:11:16Z</time>
      </trkpt>
      <trkpt lat="45.80577" lon="5.03855">
        <ele>182</ele>
        <time>2011-08-04T16:11:28Z</time>
      </trkpt>
      <trkpt lat="45.80621" lon="5.03857">
        <ele>182</ele>
        <time>2011-08-04T16:11:39Z</time>
      </trkpt>
      <trkpt lat="45.80627" lon="5.03863">
        <ele>181</ele>
        <time>2011-08-04T16:11:41Z</time>
      </trkpt>
      <trkpt lat="45.80637" lon="5.03889">
        <ele>181</ele>
        <time>2011-08-04T16:11:46Z</time>
      </trkpt>
      <trkpt lat="45.80662" lon="5.03909">
        <ele>182</ele>
        <time>2011-08-04T16:11:52Z</time>
      </trkpt>
      <trkpt lat="45.80715" lon="5.03954">
        <ele>181</ele>
        <time>2011-08-04T16:12:05Z</time>
      </trkpt>
      <trkpt lat="45.80723" lon="5.04001">
        <ele>181</ele>
        <time>2011-08-04T16:12:11Z</time>
      </trkpt>
      <trkpt lat="45.80724" lon="5.04024">
        <ele>181</ele>
        <time>2011-08-04T16:12:14Z</time>
      </trkpt>
      <trkpt lat="45.80725" lon="5.04049">
        <ele>181</ele>
        <time>2011-08-04T16:12:18Z</time>
      </trkpt>
      <trkpt lat="45.80694" lon="5.041">
        <ele>182</ele>
        <time>2011-08-04T16:12:34Z</time>
      </trkpt>
      <trkpt lat="45.80674" lon="5.04143">
        <ele>182</ele>
        <time>2011-08-04T16:12:45Z</time>
      </trkpt>
      <trkpt lat="45.80658" lon="5.04165">
        <ele>183</ele>
        <time>2011-08-04T16:12:52Z</time>
      </trkpt>
      <trkpt lat="45.80649" lon="5.0416">
        <ele>182</ele>
        <time>2011-08-04T16:12:57Z</time>
      </trkpt>
      <trkpt lat="45.80609" lon="5.04167">
        <ele>182</ele>
        <time>2011-08-04T16:13:19Z</time>
      </trkpt>
      <trkpt lat="45.80599" lon="5.04164">
        <ele>182</ele>
        <time>2011-08-04T16:13:22Z</time>
      </trkpt>
      <trkpt lat="45.80538" lon="5.04129">
        <ele>182</ele>
        <time>2011-08-04T16:13:28Z</time>
      </trkpt>
      <trkpt lat="45.80492" lon="5.04089">
        <ele>183</ele>
        <time>2011-08-04T16:13:39Z</time>
      </trkpt>
      <trkpt lat="45.80484" lon="5.04122">
        <ele>182</ele>
        <time>2011-08-04T16:13:45Z</time>
      </trkpt>
      <trkpt lat="45.80483" lon="5.0415">
        <ele>183</ele>
        <time>2011-08-04T16:13:48Z</time>
      </trkpt>
      <trkpt lat="45.8049" lon="5.04201">
        <ele>183</ele>
        <time>2011-08-04T16:13:55Z</time>
      </trkpt>
      <trkpt lat="45.80405" lon="5.04541">
        <ele>183</ele>
        <time>2011-08-04T16:14:59Z</time>
      </trkpt>
      <trkpt lat="45.804" lon="5.04544">
        <ele>183</ele>
        <time>2011-08-04T16:15:02Z</time>
      </trkpt>
      <trkpt lat="45.80392" lon="5.04541">
        <ele>183</ele>
        <time>2011-08-04T16:15:06Z</time>
      </trkpt>
      <trkpt lat="45.80355" lon="5.04494">
        <ele>184</ele>
        <time>2011-08-04T16:15:26Z</time>
      </trkpt>
      <trkpt lat="45.80327" lon="5.04455">
        <ele>183</ele>
        <time>2011-08-04T16:15:37Z</time>
      </trkpt>
      <trkpt lat="45.80296" lon="5.04407">
        <ele>182</ele>
        <time>2011-08-04T16:15:48Z</time>
      </trkpt>
      <trkpt lat="45.80286" lon="5.0439">
        <ele>182</ele>
        <time>2011-08-04T16:15:52Z</time>
      </trkpt>
      <trkpt lat="45.80291" lon="5.04372">
        <ele>182</ele>
        <time>2011-08-04T16:15:57Z</time>
      </trkpt>
      <trkpt lat="45.80293" lon="5.0437">
        <ele>182</ele>
        <time>2011-08-04T16:15:58Z</time>
      </trkpt>
      <trkpt lat="45.8032" lon="5.04348">
        <ele>182</ele>
        <time>2011-08-04T16:16:07Z</time>
      </trkpt>
      <trkpt lat="45.80326" lon="5.04268">
        <ele>181</ele>
        <time>2011-08-04T16:16:21Z</time>
      </trkpt>
      <trkpt lat="45.80336" lon="5.04238">
        <ele>180</ele>
        <time>2011-08-04T16:16:27Z</time>
      </trkpt>
      <trkpt lat="45.80356" lon="5.04233">
        <ele>181</ele>
        <time>2011-08-04T16:16:33Z</time>
      </trkpt>
      <trkpt lat="45.80363" lon="5.0423">
        <ele>181</ele>
        <time>2011-08-04T16:16:35Z</time>
      </trkpt>
      <trkpt lat="45.80368" lon="5.04215">
        <ele>181</ele>
        <time>2011-08-04T16:16:40Z</time>
      </trkpt>
      <trkpt lat="45.80371" lon="5.04207">
        <ele>181</ele>
        <time>2011-08-04T16:16:43Z</time>
      </trkpt>
      <trkpt lat="45.80385" lon="5.04198">
        <ele>181</ele>
        <time>2011-08-04T16:16:45Z</time>
      </trkpt>
      <trkpt lat="45.80389" lon="5.04202">
        <ele>181</ele>
        <time>2011-08-04T16:16:47Z</time>
      </trkpt>
      <trkpt lat="45.80419" lon="5.04187">
        <ele>182</ele>
        <time>2011-08-04T16:16:55Z</time>
      </trkpt>
      <trkpt lat="45.80439" lon="5.04161">
        <ele>182</ele>
        <time>2011-08-04T16:17:01Z</time>
      </trkpt>
      <trkpt lat="45.80441" lon="5.04155">
        <ele>182</ele>
        <time>2011-08-04T16:17:02Z</time>
      </trkpt>
      <trkpt lat="45.80451" lon="5.04108">
        <ele>182</ele>
        <time>2011-08-04T16:17:09Z</time>
      </trkpt>
      <trkpt lat="45.80452" lon="5.04094">
        <ele>182</ele>
        <time>2011-08-04T16:17:11Z</time>
      </trkpt>
      <trkpt lat="45.80452" lon="5.0408">
        <ele>181</ele>
        <time>2011-08-04T16:17:13Z</time>
      </trkpt>
      <trkpt lat="45.80457" lon="5.0406">
        <ele>181</ele>
        <time>2011-08-04T16:17:16Z</time>
      </trkpt>
      <trkpt lat="45.8046" lon="5.04032">
        <ele>181</ele>
        <time>2011-08-04T16:17:20Z</time>
      </trkpt>
      <trkpt lat="45.80461" lon="5.04017">
        <ele>181</ele>
        <time>2011-08-04T16:17:22Z</time>
      </trkpt>
      <trkpt lat="45.80472" lon="5.03979">
        <ele>180</ele>
        <time>2011-08-04T16:17:27Z</time>
      </trkpt>
      <trkpt lat="45.80475" lon="5.03965">
        <ele>180</ele>
        <time>2011-08-04T16:17:29Z</time>
      </trkpt>
      <trkpt lat="45.80488" lon="5.03964">
        <ele>180</ele>
        <time>2011-08-04T16:17:33Z</time>
      </trkpt>
      <trkpt lat="45.8052" lon="5.03972">
        <ele>181</ele>
        <time>2011-08-04T16:17:41Z</time>
      </trkpt>
      <trkpt lat="45.80523" lon="5.03958">
        <ele>181</ele>
        <time>2011-08-04T16:17:45Z</time>
      </trkpt>
      <trkpt lat="45.80526" lon="5.03928">
        <ele>181</ele>
        <time>2011-08-04T16:17:50Z</time>
      </trkpt>
      <trkpt lat="45.80526" lon="5.03914">
        <ele>181</ele>
        <time>2011-08-04T16:17:52Z</time>
      </trkpt>
      <trkpt lat="45.8051" lon="5.0381">
        <ele>182</ele>
        <time>2011-08-04T16:18:08Z</time>
      </trkpt>
      <trkpt lat="45.80493" lon="5.03757">
        <ele>182</ele>
        <time>2011-08-04T16:18:17Z</time>
      </trkpt>
      <trkpt lat="45.80495" lon="5.03747">
        <ele>182</ele>
        <time>2011-08-04T16:18:20Z</time>
      </trkpt>
      <trkpt lat="45.805" lon="5.0373">
        <ele>182</ele>
        <time>2011-08-04T16:18:25Z</time>
      </trkpt>
      <trkpt lat="45.805" lon="5.03682">
        <ele>183</ele>
        <time>2011-08-04T16:18:35Z</time>
      </trkpt>
      <trkpt lat="45.80502" lon="5.03617">
        <ele>183</ele>
        <time>2011-08-04T16:18:48Z</time>
      </trkpt>
      <trkpt lat="45.80504" lon="5.03599">
        <ele>183</ele>
        <time>2011-08-04T16:18:52Z</time>
      </trkpt>
      <trkpt lat="45.80497" lon="5.03588">
        <ele>182</ele>
        <time>2011-08-04T16:18:56Z</time>
      </trkpt>
      <trkpt lat="45.80485" lon="5.0358">
        <ele>182</ele>
        <time>2011-08-04T16:19:00Z</time>
      </trkpt>
      <trkpt lat="45.80474" lon="5.03552">
        <ele>182</ele>
        <time>2011-08-04T16:19:08Z</time>
      </trkpt>
      <trkpt lat="45.80467" lon="5.03508">
        <ele>181</ele>
        <time>2011-08-04T16:19:19Z</time>
      </trkpt>
      <trkpt lat="45.80459" lon="5.03474">
        <ele>181</ele>
        <time>2011-08-04T16:19:27Z</time>
      </trkpt>
      <trkpt lat="45.80457" lon="5.03449">
        <ele>181</ele>
        <time>2011-08-04T16:19:34Z</time>
      </trkpt>
      <trkpt lat="45.80459" lon="5.03424">
        <ele>181</ele>
        <time>2011-08-04T16:19:42Z</time>
      </trkpt>
      <trkpt lat="45.80462" lon="5.03369">
        <ele>181</ele>
        <time>2011-08-04T16:19:53Z</time>
      </trkpt>
      <trkpt lat="45.80461" lon="5.0334">
        <ele>181</ele>
        <time>2011-08-04T16:19:58Z</time>
      </trkpt>
      <trkpt lat="45.80453" lon="5.03314">
        <ele>181</ele>
        <time>2011-08-04T16:20:02Z</time>
      </trkpt>
      <trkpt lat="45.8044" lon="5.03292">
        <ele>181</ele>
        <time>2011-08-04T16:20:06Z</time>
      </trkpt>
      <trkpt lat="45.80425" lon="5.03287">
        <ele>181</ele>
        <time>2011-08-04T16:20:10Z</time>
      </trkpt>
      <trkpt lat="45.8042" lon="5.03286">
        <ele>181</ele>
        <time>2011-08-04T16:20:11Z</time>
      </trkpt>
      <trkpt lat="45.8038" lon="5.03287">
        <ele>179</ele>
        <time>2011-08-04T16:20:19Z</time>
      </trkpt>
      <trkpt lat="45.80365" lon="5.03285">
        <ele>179</ele>
        <time>2011-08-04T16:20:22Z</time>
      </trkpt>
      <trkpt lat="45.80357" lon="5.03266">
        <ele>179</ele>
        <time>2011-08-04T16:20:27Z</time>
      </trkpt>
      <trkpt lat="45.80361" lon="5.03233">
        <ele>178</ele>
        <time>2011-08-04T16:20:34Z</time>
      </trkpt>
      <trkpt lat="45.80378" lon="5.03207">
        <ele>178</ele>
        <time>2011-08-04T16:20:43Z</time>
      </trkpt>
      <trkpt lat="45.80383" lon="5.03203">
        <ele>178</ele>
        <time>2011-08-04T16:20:47Z</time>
      </trkpt>
      <trkpt lat="45.80381" lon="5.03195">
        <ele>178</ele>
        <time>2011-08-04T16:20:51Z</time>
      </trkpt>
      <trkpt lat="45.8036" lon="5.03176">
        <ele>178</ele>
        <time>2011-08-04T16:21:00Z</time>
      </trkpt>
      <trkpt lat="45.80329" lon="5.03143">
        <ele>179</ele>
        <time>2011-08-04T16:21:10Z</time>
      </trkpt>
      <trkpt lat="45.80312" lon="5.03116">
        <ele>179</ele>
        <time>2011-08-04T16:21:16Z</time>
      </trkpt>
      <trkpt lat="45.80295" lon="5.03064">
        <ele>179</ele>
        <time>2011-08-04T16:21:24Z</time>
      </trkpt>
      <trkpt lat="45.80282" lon="5.02986">
        <ele>179</ele>
        <time>2011-08-04T16:21:36Z</time>
      </trkpt>
      <trkpt lat="45.8027" lon="5.02912">
        <ele>179</ele>
        <time>2011-08-04T16:21:48Z</time>
      </trkpt>
      <trkpt lat="45.80256" lon="5.0286">
        <ele>179</ele>
        <time>2011-08-04T16:21:58Z</time>
      </trkpt>
      <trkpt lat="45.80254" lon="5.02858">
        <ele>179</ele>
        <time>2011-08-04T16:21:59Z</time>
      </trkpt>
      <trkpt lat="45.80257" lon="5.02839">
        <ele>179</ele>
        <time>2011-08-04T16:22:06Z</time>
      </trkpt>
      <trkpt lat="45.80269" lon="5.02786">
        <ele>180</ele>
        <time>2011-08-04T16:22:17Z</time>
      </trkpt>
      <trkpt lat="45.80277" lon="5.02743">
        <ele>180</ele>
        <time>2011-08-04T16:22:25Z</time>
      </trkpt>
      <trkpt lat="45.80289" lon="5.02695">
        <ele>180</ele>
        <time>2011-08-04T16:22:34Z</time>
      </trkpt>
      <trkpt lat="45.8029" lon="5.02661">
        <ele>180</ele>
        <time>2011-08-04T16:22:40Z</time>
      </trkpt>
      <trkpt lat="45.80282" lon="5.02595">
        <ele>180</ele>
        <time>2011-08-04T16:22:51Z</time>
      </trkpt>
      <trkpt lat="45.8027" lon="5.02512">
        <ele>180</ele>
        <time>2011-08-04T16:23:03Z</time>
      </trkpt>
      <trkpt lat="45.80256" lon="5.02457">
        <ele>180</ele>
        <time>2011-08-04T16:23:11Z</time>
      </trkpt>
      <trkpt lat="45.80257" lon="5.02436">
        <ele>180</ele>
        <time>2011-08-04T16:23:14Z</time>
      </trkpt>
      <trkpt lat="45.80254" lon="5.02401">
        <ele>180</ele>
        <time>2011-08-04T16:23:20Z</time>
      </trkpt>
      <trkpt lat="45.80241" lon="5.02366">
        <ele>180</ele>
        <time>2011-08-04T16:23:27Z</time>
      </trkpt>
      <trkpt lat="45.8021" lon="5.02335">
        <ele>180</ele>
        <time>2011-08-04T16:23:36Z</time>
      </trkpt>
      <trkpt lat="45.802" lon="5.02323">
        <ele>180</ele>
        <time>2011-08-04T16:23:39Z</time>
      </trkpt>
      <trkpt lat="45.80191" lon="5.02296">
        <ele>180</ele>
        <time>2011-08-04T16:23:44Z</time>
      </trkpt>
      <trkpt lat="45.80172" lon="5.02243">
        <ele>179</ele>
        <time>2011-08-04T16:23:53Z</time>
      </trkpt>
      <trkpt lat="45.80165" lon="5.02225">
        <ele>179</ele>
        <time>2011-08-04T16:23:56Z</time>
      </trkpt>
      <trkpt lat="45.80149" lon="5.022">
        <ele>178</ele>
        <time>2011-08-04T16:24:01Z</time>
      </trkpt>
      <trkpt lat="45.80122" lon="5.02137">
        <ele>178</ele>
        <time>2011-08-04T16:24:12Z</time>
      </trkpt>
      <trkpt lat="45.80094" lon="5.02097">
        <ele>179</ele>
        <time>2011-08-04T16:24:20Z</time>
      </trkpt>
      <trkpt lat="45.80061" lon="5.02058">
        <ele>178</ele>
        <time>2011-08-04T16:24:29Z</time>
      </trkpt>
      <trkpt lat="45.80027" lon="5.02019">
        <ele>178</ele>
        <time>2011-08-04T16:24:38Z</time>
      </trkpt>
      <trkpt lat="45.80018" lon="5.02013">
        <ele>178</ele>
        <time>2011-08-04T16:24:40Z</time>
      </trkpt>
      <trkpt lat="45.79969" lon="5.01997">
        <ele>178</ele>
        <time>2011-08-04T16:24:50Z</time>
      </trkpt>
      <trkpt lat="45.79921" lon="5.01962">
        <ele>178</ele>
        <time>2011-08-04T16:25:01Z</time>
      </trkpt>
      <trkpt lat="45.7991" lon="5.01953">
        <ele>178</ele>
        <time>2011-08-04T16:25:04Z</time>
      </trkpt>
      <trkpt lat="45.79866" lon="5.01908">
        <ele>178</ele>
        <time>2011-08-04T16:25:16Z</time>
      </trkpt>
      <trkpt lat="45.79841" lon="5.01881">
        <ele>177</ele>
        <time>2011-08-04T16:25:23Z</time>
      </trkpt>
      <trkpt lat="45.79819" lon="5.01882">
        <ele>178</ele>
        <time>2011-08-04T16:25:29Z</time>
      </trkpt>
      <trkpt lat="45.79814" lon="5.0189">
        <ele>178</ele>
        <time>2011-08-04T16:25:31Z</time>
      </trkpt>
      <trkpt lat="45.79796" lon="5.01931">
        <ele>177</ele>
        <time>2011-08-04T16:25:41Z</time>
      </trkpt>
      <trkpt lat="45.79775" lon="5.0197">
        <ele>177</ele>
        <time>2011-08-04T16:25:51Z</time>
      </trkpt>
      <trkpt lat="45.79744" lon="5.01914">
        <ele>178</ele>
        <time>2011-08-04T16:25:59Z</time>
      </trkpt>
      <trkpt lat="45.79716" lon="5.01898">
        <ele>179</ele>
        <time>2011-08-04T16:26:06Z</time>
      </trkpt>
      <trkpt lat="45.79698" lon="5.01877">
        <ele>179</ele>
        <time>2011-08-04T16:26:11Z</time>
      </trkpt>
      <trkpt lat="45.79686" lon="5.01856">
        <ele>179</ele>
        <time>2011-08-04T16:26:15Z</time>
      </trkpt>
      <trkpt lat="45.79697" lon="5.01723">
        <ele>180</ele>
        <time>2011-08-04T16:26:40Z</time>
      </trkpt>
      <trkpt lat="45.79829" lon="5.01562">
        <ele>180</ele>
        <time>2011-08-04T16:27:19Z</time>
      </trkpt>
      <trkpt lat="45.79874" lon="5.01572">
        <ele>180</ele>
        <time>2011-08-04T16:27:30Z</time>
      </trkpt>
      <trkpt lat="45.80049" lon="5.01581">
        <ele>179</ele>
        <time>2011-08-04T16:28:19Z</time>
      </trkpt>
      <trkpt lat="45.80026" lon="5.01416">
        <ele>182</ele>
        <time>2011-08-04T16:28:23Z</time>
      </trkpt>
      <trkpt lat="45.80026" lon="5.0137">
        <ele>182</ele>
        <time>2011-08-04T16:28:30Z</time>
      </trkpt>
      <trkpt lat="45.79961" lon="5.01192">
        <ele>180</ele>
        <time>2011-08-04T16:30:32Z</time>
      </trkpt>
      <trkpt lat="45.7996" lon="5.01193">
        <ele>180</ele>
        <time>2011-08-04T16:30:33Z</time>
      </trkpt>
      <trkpt lat="45.79944" lon="5.01185">
        <ele>180</ele>
        <time>2011-08-04T16:30:45Z</time>
      </trkpt>
      <trkpt lat="45.79869" lon="5.00754">
        <ele>178</ele>
        <time>2011-08-04T16:33:22Z</time>
      </trkpt>
      <trkpt lat="45.79869" lon="5.00748">
        <ele>178</ele>
        <time>2011-08-04T16:33:23Z</time>
      </trkpt>
      <trkpt lat="45.7989" lon="5.00652">
        <ele>179</ele>
        <time>2011-08-04T16:33:43Z</time>
      </trkpt>
      <trkpt lat="45.7989" lon="5.00646">
        <ele>179</ele>
        <time>2011-08-04T16:33:45Z</time>
      </trkpt>
      <trkpt lat="45.79874" lon="5.00627">
        <ele>180</ele>
        <time>2011-08-04T16:33:53Z</time>
      </trkpt>
      <trkpt lat="45.79857" lon="5.00581">
        <ele>182</ele>
        <time>2011-08-04T16:34:03Z</time>
      </trkpt>
      <trkpt lat="45.79835" lon="5.0054">
        <ele>183</ele>
        <time>2011-08-04T16:34:13Z</time>
      </trkpt>
      <trkpt lat="45.79835" lon="5.00539">
        <ele>183</ele>
        <time>2011-08-04T16:34:15Z</time>
      </trkpt>
      <trkpt lat="45.7984" lon="5.00551">
        <ele>182</ele>
        <time>2011-08-04T16:34:25Z</time>
      </trkpt>
      <trkpt lat="45.79842" lon="5.00545">
        <ele>182</ele>
        <time>2011-08-04T16:34:28Z</time>
      </trkpt>
      <trkpt lat="45.79843" lon="5.00532">
        <ele>183</ele>
        <time>2011-08-04T16:34:34Z</time>
      </trkpt>
      <trkpt lat="45.79829" lon="5.00494">
        <ele>185</ele>
        <time>2011-08-04T16:34:48Z</time>
      </trkpt>
      <trkpt lat="45.79821" lon="5.00398">
        <ele>186</ele>
        <time>2011-08-04T16:35:20Z</time>
      </trkpt>
      <trkpt lat="45.79817" lon="5.00366">
        <ele>185</ele>
        <time>2011-08-04T16:35:35Z</time>
      </trkpt>
      <trkpt lat="45.79815" lon="5.00361">
        <ele>185</ele>
        <time>2011-08-04T16:35:37Z</time>
      </trkpt>
      <trkpt lat="45.79815" lon="5.00338">
        <ele>185</ele>
        <time>2011-08-04T16:35:46Z</time>
      </trkpt>
      <trkpt lat="45.7978" lon="5.00139">
        <ele>186</ele>
        <time>2011-08-04T16:36:53Z</time>
      </trkpt>
      <trkpt lat="45.79785" lon="5.00136">
        <ele>186</ele>
        <time>2011-08-04T16:36:56Z</time>
      </trkpt>
      <trkpt lat="45.79795" lon="5.00105">
        <ele>186</ele>
        <time>2011-08-04T16:37:08Z</time>
      </trkpt>
      <trkpt lat="45.79833" lon="4.99968">
        <ele>185</ele>
        <time>2011-08-04T16:38:12Z</time>
      </trkpt>
      <trkpt lat="45.79823" lon="4.99936">
        <ele>184</ele>
        <time>2011-08-04T16:38:22Z</time>
      </trkpt>
      <trkpt lat="45.79813" lon="4.99896">
        <ele>182</ele>
        <time>2011-08-04T16:38:32Z</time>
      </trkpt>
      <trkpt lat="45.79806" lon="4.99857">
        <ele>180</ele>
        <time>2011-08-04T16:38:40Z</time>
      </trkpt>
      <trkpt lat="45.79801" lon="4.99812">
        <ele>178</ele>
        <time>2011-08-04T16:38:49Z</time>
      </trkpt>
      <trkpt lat="45.79806" lon="4.99694">
        <ele>177</ele>
        <time>2011-08-04T16:39:14Z</time>
      </trkpt>
      <trkpt lat="45.79796" lon="4.99681">
        <ele>177</ele>
        <time>2011-08-04T16:39:21Z</time>
      </trkpt>
      <trkpt lat="45.79782" lon="4.99681">
        <ele>177</ele>
        <time>2011-08-04T16:39:30Z</time>
      </trkpt>
      <trkpt lat="45.79776" lon="4.99678">
        <ele>177</ele>
        <time>2011-08-04T16:39:33Z</time>
      </trkpt>
      <trkpt lat="45.79781" lon="4.99669">
        <ele>177</ele>
        <time>2011-08-04T16:39:39Z</time>
      </trkpt>
      <trkpt lat="45.79787" lon="4.99663">
        <ele>177</ele>
        <time>2011-08-04T16:39:48Z</time>
      </trkpt>
      <trkpt lat="45.79804" lon="4.99661">
        <ele>177</ele>
        <time>2011-08-04T16:41:32Z</time>
      </trkpt>
      <trkpt lat="45.79856" lon="4.99599">
        <ele>178</ele>
        <time>2011-08-04T16:41:54Z</time>
      </trkpt>
      <trkpt lat="45.79884" lon="4.99559">
        <ele>177</ele>
        <time>2011-08-04T16:42:03Z</time>
      </trkpt>
      <trkpt lat="45.79891" lon="4.99549">
        <ele>177</ele>
        <time>2011-08-04T16:42:05Z</time>
      </trkpt>
      <trkpt lat="45.79944" lon="4.99498">
        <ele>177</ele>
        <time>2011-08-04T16:42:17Z</time>
      </trkpt>
      <trkpt lat="45.8" lon="4.99441">
        <ele>177</ele>
        <time>2011-08-04T16:42:30Z</time>
      </trkpt>
      <trkpt lat="45.80013" lon="4.99428">
        <ele>177</ele>
        <time>2011-08-04T16:42:33Z</time>
      </trkpt>
      <trkpt lat="45.8005" lon="4.99376">
        <ele>177</ele>
        <time>2011-08-04T16:42:43Z</time>
      </trkpt>
      <trkpt lat="45.80098" lon="4.9931">
        <ele>178</ele>
        <time>2011-08-04T16:42:57Z</time>
      </trkpt>
      <trkpt lat="45.80119" lon="4.99275">
        <ele>178</ele>
        <time>2011-08-04T16:43:05Z</time>
      </trkpt>
      <trkpt lat="45.80151" lon="4.99243">
        <ele>178</ele>
        <time>2011-08-04T16:43:21Z</time>
      </trkpt>
      <trkpt lat="45.80146" lon="4.99249">
        <ele>178</ele>
        <time>2011-08-04T16:43:31Z</time>
      </trkpt>
      <trkpt lat="45.80141" lon="4.99244">
        <ele>178</ele>
        <time>2011-08-04T16:43:47Z</time>
      </trkpt>
      <trkpt lat="45.8014" lon="4.99241">
        <ele>178</ele>
        <time>2011-08-04T16:44:15Z</time>
      </trkpt>
      <trkpt lat="45.8014" lon="4.99226">
        <ele>178</ele>
        <time>2011-08-04T16:44:23Z</time>
      </trkpt>
      <trkpt lat="45.8016" lon="4.99184">
        <ele>177</ele>
        <time>2011-08-04T16:44:35Z</time>
      </trkpt>
      <trkpt lat="45.80178" lon="4.99146">
        <ele>176</ele>
        <time>2011-08-04T16:44:43Z</time>
      </trkpt>
      <trkpt lat="45.80187" lon="4.991">
        <ele>176</ele>
        <time>2011-08-04T16:44:49Z</time>
      </trkpt>
      <trkpt lat="45.80195" lon="4.99073">
        <ele>176</ele>
        <time>2011-08-04T16:44:53Z</time>
      </trkpt>
      <trkpt lat="45.80196" lon="4.99055">
        <ele>176</ele>
        <time>2011-08-04T16:44:56Z</time>
      </trkpt>
      <trkpt lat="45.80199" lon="4.99035">
        <ele>176</ele>
        <time>2011-08-04T16:44:59Z</time>
      </trkpt>
      <trkpt lat="45.80202" lon="4.99016">
        <ele>176</ele>
        <time>2011-08-04T16:45:02Z</time>
      </trkpt>
      <trkpt lat="45.80203" lon="4.98986">
        <ele>177</ele>
        <time>2011-08-04T16:45:06Z</time>
      </trkpt>
      <trkpt lat="45.80201" lon="4.98947">
        <ele>177</ele>
        <time>2011-08-04T16:45:13Z</time>
      </trkpt>
      <trkpt lat="45.80201" lon="4.98951">
        <ele>177</ele>
        <time>2011-08-04T16:45:21Z</time>
      </trkpt>
      <trkpt lat="45.80202" lon="4.98963">
        <ele>177</ele>
        <time>2011-08-04T16:45:25Z</time>
      </trkpt>
      <trkpt lat="45.80212" lon="4.98971">
        <ele>177</ele>
        <time>2011-08-04T16:45:33Z</time>
      </trkpt>
      <trkpt lat="45.80229" lon="4.98974">
        <ele>177</ele>
        <time>2011-08-04T16:45:39Z</time>
      </trkpt>
      <trkpt lat="45.80235" lon="4.98966">
        <ele>177</ele>
        <time>2011-08-04T16:45:42Z</time>
      </trkpt>
      <trkpt lat="45.80236" lon="4.98954">
        <ele>178</ele>
        <time>2011-08-04T16:45:44Z</time>
      </trkpt>
      <trkpt lat="45.80234" lon="4.98947">
        <ele>178</ele>
        <time>2011-08-04T16:45:48Z</time>
      </trkpt>
      <trkpt lat="45.80238" lon="4.98915">
        <ele>179</ele>
        <time>2011-08-04T16:46:03Z</time>
      </trkpt>
      <trkpt lat="45.80235" lon="4.98843">
        <ele>179</ele>
        <time>2011-08-04T16:46:17Z</time>
      </trkpt>
      <trkpt lat="45.80232" lon="4.98821">
        <ele>179</ele>
        <time>2011-08-04T16:46:21Z</time>
      </trkpt>
      <trkpt lat="45.80214" lon="4.98783">
        <ele>179</ele>
        <time>2011-08-04T16:46:28Z</time>
      </trkpt>
      <trkpt lat="45.80188" lon="4.98727">
        <ele>179</ele>
        <time>2011-08-04T16:46:39Z</time>
      </trkpt>
      <trkpt lat="45.80184" lon="4.98678">
        <ele>179</ele>
        <time>2011-08-04T16:46:49Z</time>
      </trkpt>
      <trkpt lat="45.80183" lon="4.98661">
        <ele>179</ele>
        <time>2011-08-04T16:46:52Z</time>
      </trkpt>
      <trkpt lat="45.80193" lon="4.98581">
        <ele>179</ele>
        <time>2011-08-04T16:47:09Z</time>
      </trkpt>
      <trkpt lat="45.80196" lon="4.9855">
        <ele>180</ele>
        <time>2011-08-04T16:47:14Z</time>
      </trkpt>
      <trkpt lat="45.80208" lon="4.98359">
        <ele>180</ele>
        <time>2011-08-04T16:47:43Z</time>
      </trkpt>
      <trkpt lat="45.80219" lon="4.98252">
        <ele>178</ele>
        <time>2011-08-04T16:48:01Z</time>
      </trkpt>
      <trkpt lat="45.80218" lon="4.98237">
        <ele>175</ele>
        <time>2011-08-04T16:48:05Z</time>
      </trkpt>
      <trkpt lat="45.80233" lon="4.98224">
        <ele>175</ele>
        <time>2011-08-04T16:48:34Z</time>
      </trkpt>
      <trkpt lat="45.80245" lon="4.98212">
        <ele>175</ele>
        <time>2011-08-04T16:48:46Z</time>
      </trkpt>
      <trkpt lat="45.80245" lon="4.98211">
        <ele>175</ele>
        <time>2011-08-04T16:48:54Z</time>
      </trkpt>
      <trkpt lat="45.80217" lon="4.98206">
        <ele>174</ele>
        <time>2011-08-04T16:49:02Z</time>
      </trkpt>
      <trkpt lat="45.80198" lon="4.98215">
        <ele>174</ele>
        <time>2011-08-04T16:49:07Z</time>
      </trkpt>
      <trkpt lat="45.80183" lon="4.98243">
        <ele>175</ele>
        <time>2011-08-04T16:49:12Z</time>
      </trkpt>
      <trkpt lat="45.80165" lon="4.98268">
        <ele>174</ele>
        <time>2011-08-04T16:49:17Z</time>
      </trkpt>
      <trkpt lat="45.8015" lon="4.98293">
        <ele>175</ele>
        <time>2011-08-04T16:49:21Z</time>
      </trkpt>
      <trkpt lat="45.80122" lon="4.9831">
        <ele>174</ele>
        <time>2011-08-04T16:49:26Z</time>
      </trkpt>
      <trkpt lat="45.80081" lon="4.98333">
        <ele>174</ele>
        <time>2011-08-04T16:49:32Z</time>
      </trkpt>
      <trkpt lat="45.80053" lon="4.9834">
        <ele>176</ele>
        <time>2011-08-04T16:49:36Z</time>
      </trkpt>
      <trkpt lat="45.80027" lon="4.98329">
        <ele>176</ele>
        <time>2011-08-04T16:49:40Z</time>
      </trkpt>
      <trkpt lat="45.79999" lon="4.98253">
        <ele>177</ele>
        <time>2011-08-04T16:49:48Z</time>
      </trkpt>
      <trkpt lat="45.79975" lon="4.98159">
        <ele>175</ele>
        <time>2011-08-04T16:49:58Z</time>
      </trkpt>
      <trkpt lat="45.79969" lon="4.98139">
        <ele>176</ele>
        <time>2011-08-04T16:50:01Z</time>
      </trkpt>
      <trkpt lat="45.79963" lon="4.98137">
        <ele>176</ele>
        <time>2011-08-04T16:50:08Z</time>
      </trkpt>
      <trkpt lat="45.79957" lon="4.98123">
        <ele>177</ele>
        <time>2011-08-04T16:50:18Z</time>
      </trkpt>
      <trkpt lat="45.79958" lon="4.98124">
        <ele>176</ele>
        <time>2011-08-04T16:50:24Z</time>
      </trkpt>
      <trkpt lat="45.79957" lon="4.98116">
        <ele>177</ele>
        <time>2011-08-04T16:50:32Z</time>
      </trkpt>
      <trkpt lat="45.79951" lon="4.9809">
        <ele>177</ele>
        <time>2011-08-04T16:50:40Z</time>
      </trkpt>
      <trkpt lat="45.79896" lon="4.98113">
        <ele>180</ele>
        <time>2011-08-04T16:50:52Z</time>
      </trkpt>
      <trkpt lat="45.79766" lon="4.98207">
        <ele>180</ele>
        <time>2011-08-04T16:51:18Z</time>
      </trkpt>
      <trkpt lat="45.79739" lon="4.98239">
        <ele>179</ele>
        <time>2011-08-04T16:51:27Z</time>
      </trkpt>
      <trkpt lat="45.7972" lon="4.98278">
        <ele>177</ele>
        <time>2011-08-04T16:51:38Z</time>
      </trkpt>
      <trkpt lat="45.79698" lon="4.98285">
        <ele>177</ele>
        <time>2011-08-04T16:51:43Z</time>
      </trkpt>
      <trkpt lat="45.79625" lon="4.98321">
        <ele>175</ele>
        <time>2011-08-04T16:51:54Z</time>
      </trkpt>
      <trkpt lat="45.79555" lon="4.98357">
        <ele>175</ele>
        <time>2011-08-04T16:52:05Z</time>
      </trkpt>
      <trkpt lat="45.79498" lon="4.98388">
        <ele>176</ele>
        <time>2011-08-04T16:52:14Z</time>
      </trkpt>
      <trkpt lat="45.79456" lon="4.98411">
        <ele>176</ele>
        <time>2011-08-04T16:52:21Z</time>
      </trkpt>
      <trkpt lat="45.79438" lon="4.98405">
        <ele>177</ele>
        <time>2011-08-04T16:52:25Z</time>
      </trkpt>
      <trkpt lat="45.79431" lon="4.9839">
        <ele>177</ele>
        <time>2011-08-04T16:52:28Z</time>
      </trkpt>
      <trkpt lat="45.79424" lon="4.98357">
        <ele>177</ele>
        <time>2011-08-04T16:52:36Z</time>
      </trkpt>
      <trkpt lat="45.79416" lon="4.98313">
        <ele>176</ele>
        <time>2011-08-04T16:52:46Z</time>
      </trkpt>
      <trkpt lat="45.79408" lon="4.98283">
        <ele>176</ele>
        <time>2011-08-04T16:52:54Z</time>
      </trkpt>
      <trkpt lat="45.79403" lon="4.98274">
        <ele>176</ele>
        <time>2011-08-04T16:52:58Z</time>
      </trkpt>
      <trkpt lat="45.79384" lon="4.98275">
        <ele>176</ele>
        <time>2011-08-04T16:53:11Z</time>
      </trkpt>
      <trkpt lat="45.79374" lon="4.98276">
        <ele>176</ele>
        <time>2011-08-04T16:53:18Z</time>
      </trkpt>
      <trkpt lat="45.79364" lon="4.98278">
        <ele>176</ele>
        <time>2011-08-04T16:53:27Z</time>
      </trkpt>
      <trkpt lat="45.7936" lon="4.98274">
        <ele>176</ele>
        <time>2011-08-04T16:53:31Z</time>
      </trkpt>
      <trkpt lat="45.79358" lon="4.98271">
        <ele>176</ele>
        <time>2011-08-04T16:53:39Z</time>
      </trkpt>
      <trkpt lat="45.79359" lon="4.98269">
        <ele>176</ele>
        <time>2011-08-04T16:54:31Z</time>
      </trkpt>
      <trkpt lat="45.79358" lon="4.9827">
        <ele>176</ele>
        <time>2011-08-04T16:54:37Z</time>
      </trkpt>
      <trkpt lat="45.7936" lon="4.98276">
        <ele>176</ele>
        <time>2011-08-04T16:54:42Z</time>
      </trkpt>
      <trkpt lat="45.79359" lon="4.98273">
        <ele>176</ele>
        <time>2011-08-04T16:54:43Z</time>
      </trkpt>
      <trkpt lat="45.79358" lon="4.98262">
        <ele>175</ele>
        <time>2011-08-04T16:54:45Z</time>
      </trkpt>
      <trkpt lat="45.7936" lon="4.98203">
        <ele>175</ele>
        <time>2011-08-04T16:54:53Z</time>
      </trkpt>
      <trkpt lat="45.79365" lon="4.98137">
        <ele>176</ele>
        <time>2011-08-04T16:55:00Z</time>
      </trkpt>
      <trkpt lat="45.79371" lon="4.98076">
        <ele>177</ele>
        <time>2011-08-04T16:55:06Z</time>
      </trkpt>
      <trkpt lat="45.79373" lon="4.97959">
        <ele>177</ele>
        <time>2011-08-04T16:55:18Z</time>
      </trkpt>
      <trkpt lat="45.79375" lon="4.97941">
        <ele>177</ele>
        <time>2011-08-04T16:55:20Z</time>
      </trkpt>
      <trkpt lat="45.79388" lon="4.97921">
        <ele>177</ele>
        <time>2011-08-04T16:55:23Z</time>
      </trkpt>
      <trkpt lat="45.79547" lon="4.97825">
        <ele>176</ele>
        <time>2011-08-04T16:55:52Z</time>
      </trkpt>
      <trkpt lat="45.79557" lon="4.9782">
        <ele>176</ele>
        <time>2011-08-04T16:55:55Z</time>
      </trkpt>
      <trkpt lat="45.79545" lon="4.97797">
        <ele>177</ele>
        <time>2011-08-04T16:56:00Z</time>
      </trkpt>
      <trkpt lat="45.79524" lon="4.97747">
        <ele>177</ele>
        <time>2011-08-04T16:56:10Z</time>
      </trkpt>
      <trkpt lat="45.79675" lon="4.96993">
        <ele>178</ele>
        <time>2011-08-04T16:59:00Z</time>
      </trkpt>
      <trkpt lat="45.79649" lon="4.96936">
        <ele>178</ele>
        <time>2011-08-04T16:59:09Z</time>
      </trkpt>
      <trkpt lat="45.79645" lon="4.96928">
        <ele>178</ele>
        <time>2011-08-04T16:59:12Z</time>
      </trkpt>
      <trkpt lat="45.79649" lon="4.96901">
        <ele>178</ele>
        <time>2011-08-04T16:59:17Z</time>
      </trkpt>
      <trkpt lat="45.7965" lon="4.96896">
        <ele>178</ele>
        <time>2011-08-04T16:59:18Z</time>
      </trkpt>
      <trkpt lat="45.79655" lon="4.96874">
        <ele>177</ele>
        <time>2011-08-04T16:59:22Z</time>
      </trkpt>
      <trkpt lat="45.79685" lon="4.96628">
        <ele>179</ele>
        <time>2011-08-04T16:59:58Z</time>
      </trkpt>
      <trkpt lat="45.79686" lon="4.96613">
        <ele>179</ele>
        <time>2011-08-04T17:00:00Z</time>
      </trkpt>
      <trkpt lat="45.79699" lon="4.96514">
        <ele>178</ele>
        <time>2011-08-04T17:00:14Z</time>
      </trkpt>
      <trkpt lat="45.79697" lon="4.9648">
        <ele>178</ele>
        <time>2011-08-04T17:00:22Z</time>
      </trkpt>
      <trkpt lat="45.79699" lon="4.96459">
        <ele>178</ele>
        <time>2011-08-04T17:00:25Z</time>
      </trkpt>
      <trkpt lat="45.79717" lon="4.96378">
        <ele>178</ele>
        <time>2011-08-04T17:00:34Z</time>
      </trkpt>
      <trkpt lat="45.79734" lon="4.96276">
        <ele>180</ele>
        <time>2011-08-04T17:00:44Z</time>
      </trkpt>
      <trkpt lat="45.79734" lon="4.96265">
        <ele>180</ele>
        <time>2011-08-04T17:00:45Z</time>
      </trkpt>
      <trkpt lat="45.79731" lon="4.96236">
        <ele>181</ele>
        <time>2011-08-04T17:00:48Z</time>
      </trkpt>
      <trkpt lat="45.79682" lon="4.96076">
        <ele>178</ele>
        <time>2011-08-04T17:01:03Z</time>
      </trkpt>
      <trkpt lat="45.79687" lon="4.96054">
        <ele>177</ele>
        <time>2011-08-04T17:01:06Z</time>
      </trkpt>
      <trkpt lat="45.797" lon="4.96022">
        <ele>176</ele>
        <time>2011-08-04T17:01:12Z</time>
      </trkpt>
      <trkpt lat="45.79697" lon="4.96014">
        <ele>176</ele>
        <time>2011-08-04T17:01:14Z</time>
      </trkpt>
      <trkpt lat="45.79682" lon="4.95954">
        <ele>174</ele>
        <time>2011-08-04T17:01:26Z</time>
      </trkpt>
      <trkpt lat="45.7968" lon="4.95945">
        <ele>174</ele>
        <time>2011-08-04T17:01:28Z</time>
      </trkpt>
      <trkpt lat="45.79676" lon="4.95921">
        <ele>173</ele>
        <time>2011-08-04T17:01:32Z</time>
      </trkpt>
      <trkpt lat="45.79696" lon="4.959">
        <ele>173</ele>
        <time>2011-08-04T17:01:37Z</time>
      </trkpt>
      <trkpt lat="45.79686" lon="4.95886">
        <ele>174</ele>
        <time>2011-08-04T17:01:40Z</time>
      </trkpt>
      <trkpt lat="45.79661" lon="4.95844">
        <ele>175</ele>
        <time>2011-08-04T17:01:49Z</time>
      </trkpt>
      <trkpt lat="45.79637" lon="4.95801">
        <ele>176</ele>
        <time>2011-08-04T17:01:55Z</time>
      </trkpt>
      <trkpt lat="45.79601" lon="4.95731">
        <ele>177</ele>
        <time>2011-08-04T17:02:04Z</time>
      </trkpt>
      <trkpt lat="45.79582" lon="4.95694">
        <ele>177</ele>
        <time>2011-08-04T17:02:09Z</time>
      </trkpt>
      <trkpt lat="45.79577" lon="4.95665">
        <ele>178</ele>
        <time>2011-08-04T17:02:13Z</time>
      </trkpt>
      <trkpt lat="45.79569" lon="4.95622">
        <ele>178</ele>
        <time>2011-08-04T17:02:20Z</time>
      </trkpt>
      <trkpt lat="45.79569" lon="4.95617">
        <ele>178</ele>
        <time>2011-08-04T17:02:24Z</time>
      </trkpt>
      <trkpt lat="45.79573" lon="4.95618">
        <ele>178</ele>
        <time>2011-08-04T17:07:42Z</time>
      </trkpt>
      <trkpt lat="45.79541" lon="4.95555">
        <ele>180</ele>
        <time>2011-08-04T17:07:52Z</time>
      </trkpt>
      <trkpt lat="45.79524" lon="4.95572">
        <ele>180</ele>
        <time>2011-08-04T17:07:55Z</time>
      </trkpt>
      <trkpt lat="45.79489" lon="4.95607">
        <ele>177</ele>
        <time>2011-08-04T17:08:02Z</time>
      </trkpt>
      <trkpt lat="45.79436" lon="4.9565">
        <ele>174</ele>
        <time>2011-08-04T17:08:11Z</time>
      </trkpt>
      <trkpt lat="45.79419" lon="4.95666">
        <ele>172</ele>
        <time>2011-08-04T17:08:14Z</time>
      </trkpt>
      <trkpt lat="45.79402" lon="4.95708">
        <ele>172</ele>
        <time>2011-08-04T17:08:19Z</time>
      </trkpt>
      <trkpt lat="45.79401" lon="4.95756">
        <ele>172</ele>
        <time>2011-08-04T17:08:24Z</time>
      </trkpt>
      <trkpt lat="45.79403" lon="4.95765">
        <ele>172</ele>
        <time>2011-08-04T17:08:25Z</time>
      </trkpt>
      <trkpt lat="45.79434" lon="4.9589">
        <ele>173</ele>
        <time>2011-08-04T17:08:39Z</time>
      </trkpt>
      <trkpt lat="45.79462" lon="4.9597">
        <ele>173</ele>
        <time>2011-08-04T17:08:48Z</time>
      </trkpt>
      <trkpt lat="45.79499" lon="4.96026">
        <ele>173</ele>
        <time>2011-08-04T17:08:55Z</time>
      </trkpt>
      <trkpt lat="45.79681" lon="4.9617">
        <ele>182</ele>
        <time>2011-08-04T17:09:24Z</time>
      </trkpt>
      <trkpt lat="45.79709" lon="4.96195">
        <ele>182</ele>
        <time>2011-08-04T17:09:29Z</time>
      </trkpt>
      <trkpt lat="45.79696" lon="4.9625">
        <ele>181</ele>
        <time>2011-08-04T17:09:35Z</time>
      </trkpt>
      <trkpt lat="45.79648" lon="4.96364">
        <ele>175</ele>
        <time>2011-08-04T17:09:47Z</time>
      </trkpt>
      <trkpt lat="45.79599" lon="4.96485">
        <ele>175</ele>
        <time>2011-08-04T17:10:00Z</time>
      </trkpt>
      <trkpt lat="45.79568" lon="4.96574">
        <ele>174</ele>
        <time>2011-08-04T17:10:10Z</time>
      </trkpt>
      <trkpt lat="45.79564" lon="4.96589">
        <ele>174</ele>
        <time>2011-08-04T17:10:14Z</time>
      </trkpt>
      <trkpt lat="45.79563" lon="4.96595">
        <ele>175</ele>
        <time>2011-08-04T17:10:15Z</time>
      </trkpt>
      <trkpt lat="45.79564" lon="4.96616">
        <ele>175</ele>
        <time>2011-08-04T17:10:18Z</time>
      </trkpt>
      <trkpt lat="45.79561" lon="4.96632">
        <ele>175</ele>
        <time>2011-08-04T17:10:20Z</time>
      </trkpt>
      <trkpt lat="45.79554" lon="4.96729">
        <ele>175</ele>
        <time>2011-08-04T17:10:30Z</time>
      </trkpt>
      <trkpt lat="45.79547" lon="4.96825">
        <ele>175</ele>
        <time>2011-08-04T17:10:40Z</time>
      </trkpt>
      <trkpt lat="45.7953" lon="4.96869">
        <ele>175</ele>
        <time>2011-08-04T17:10:45Z</time>
      </trkpt>
      <trkpt lat="45.79505" lon="4.96941">
        <ele>175</ele>
        <time>2011-08-04T17:10:53Z</time>
      </trkpt>
      <trkpt lat="45.79499" lon="4.97037">
        <ele>176</ele>
        <time>2011-08-04T17:11:03Z</time>
      </trkpt>
      <trkpt lat="45.79485" lon="4.97122">
        <ele>176</ele>
        <time>2011-08-04T17:11:12Z</time>
      </trkpt>
      <trkpt lat="45.79438" lon="4.9721">
        <ele>176</ele>
        <time>2011-08-04T17:11:23Z</time>
      </trkpt>
      <trkpt lat="45.79366" lon="4.97336">
        <ele>176</ele>
        <time>2011-08-04T17:11:39Z</time>
      </trkpt>
      <trkpt lat="45.79326" lon="4.97411">
        <ele>175</ele>
        <time>2011-08-04T17:11:48Z</time>
      </trkpt>
      <trkpt lat="45.79319" lon="4.97428">
        <ele>175</ele>
        <time>2011-08-04T17:11:50Z</time>
      </trkpt>
      <trkpt lat="45.79316" lon="4.97475">
        <ele>175</ele>
        <time>2011-08-04T17:11:55Z</time>
      </trkpt>
      <trkpt lat="45.79324" lon="4.9751">
        <ele>175</ele>
        <time>2011-08-04T17:11:59Z</time>
      </trkpt>
      <trkpt lat="45.79312" lon="4.97542">
        <ele>175</ele>
        <time>2011-08-04T17:12:03Z</time>
      </trkpt>
      <trkpt lat="45.79306" lon="4.97547">
        <ele>175</ele>
        <time>2011-08-04T17:12:04Z</time>
      </trkpt>
      <trkpt lat="45.79249" lon="4.97606">
        <ele>176</ele>
        <time>2011-08-04T17:12:14Z</time>
      </trkpt>
      <trkpt lat="45.79194" lon="4.97651">
        <ele>175</ele>
        <time>2011-08-04T17:12:23Z</time>
      </trkpt>
      <trkpt lat="45.79149" lon="4.9768">
        <ele>176</ele>
        <time>2011-08-04T17:12:30Z</time>
      </trkpt>
      <trkpt lat="45.79023" lon="4.97858">
        <ele>177</ele>
        <time>2011-08-04T17:12:56Z</time>
      </trkpt>
      <trkpt lat="45.79002" lon="4.97999">
        <ele>179</ele>
        <time>2011-08-04T17:13:12Z</time>
      </trkpt>
      <trkpt lat="45.79013" lon="4.98017">
        <ele>180</ele>
        <time>2011-08-04T17:13:18Z</time>
      </trkpt>
      <trkpt lat="45.79028" lon="4.98046">
        <ele>181</ele>
        <time>2011-08-04T17:13:24Z</time>
      </trkpt>
      <trkpt lat="45.79047" lon="4.98087">
        <ele>182</ele>
        <time>2011-08-04T17:13:32Z</time>
      </trkpt>
      <trkpt lat="45.79065" lon="4.98129">
        <ele>182</ele>
        <time>2011-08-04T17:13:41Z</time>
      </trkpt>
      <trkpt lat="45.79093" lon="4.98178">
        <ele>183</ele>
        <time>2011-08-04T17:13:51Z</time>
      </trkpt>
      <trkpt lat="45.79132" lon="4.98242">
        <ele>182</ele>
        <time>2011-08-04T17:14:03Z</time>
      </trkpt>
      <trkpt lat="45.7917" lon="4.98299">
        <ele>180</ele>
        <time>2011-08-04T17:14:13Z</time>
      </trkpt>
      <trkpt lat="45.79223" lon="4.98382">
        <ele>179</ele>
        <time>2011-08-04T17:14:27Z</time>
      </trkpt>
      <trkpt lat="45.79263" lon="4.98446">
        <ele>178</ele>
        <time>2011-08-04T17:14:38Z</time>
      </trkpt>
      <trkpt lat="45.79302" lon="4.98507">
        <ele>179</ele>
        <time>2011-08-04T17:14:48Z</time>
      </trkpt>
      <trkpt lat="45.79345" lon="4.98575">
        <ele>178</ele>
        <time>2011-08-04T17:14:59Z</time>
      </trkpt>
      <trkpt lat="45.79403" lon="4.98665">
        <ele>178</ele>
        <time>2011-08-04T17:15:13Z</time>
      </trkpt>
      <trkpt lat="45.79459" lon="4.98755">
        <ele>179</ele>
        <time>2011-08-04T17:15:27Z</time>
      </trkpt>
      <trkpt lat="45.795" lon="4.9883">
        <ele>178</ele>
        <time>2011-08-04T17:15:38Z</time>
      </trkpt>
      <trkpt lat="45.79514" lon="4.98857">
        <ele>178</ele>
        <time>2011-08-04T17:15:42Z</time>
      </trkpt>
      <trkpt lat="45.79543" lon="4.98951">
        <ele>178</ele>
        <time>2011-08-04T17:15:54Z</time>
      </trkpt>
      <trkpt lat="45.79567" lon="4.99017">
        <ele>180</ele>
        <time>2011-08-04T17:16:02Z</time>
      </trkpt>
      <trkpt lat="45.7958" lon="4.99086">
        <ele>182</ele>
        <time>2011-08-04T17:16:10Z</time>
      </trkpt>
      <trkpt lat="45.79574" lon="4.99101">
        <ele>181</ele>
        <time>2011-08-04T17:16:13Z</time>
      </trkpt>
      <trkpt lat="45.79522" lon="4.99102">
        <ele>180</ele>
        <time>2011-08-04T17:16:21Z</time>
      </trkpt>
      <trkpt lat="45.79478" lon="4.99106">
        <ele>180</ele>
        <time>2011-08-04T17:16:28Z</time>
      </trkpt>
      <trkpt lat="45.79469" lon="4.99133">
        <ele>181</ele>
        <time>2011-08-04T17:16:34Z</time>
      </trkpt>
      <trkpt lat="45.79469" lon="4.99141">
        <ele>181</ele>
        <time>2011-08-04T17:16:35Z</time>
      </trkpt>
      <trkpt lat="45.7946" lon="4.99309">
        <ele>183</ele>
        <time>2011-08-04T17:16:52Z</time>
      </trkpt>
      <trkpt lat="45.79437" lon="4.99399">
        <ele>183</ele>
        <time>2011-08-04T17:17:01Z</time>
      </trkpt>
      <trkpt lat="45.79374" lon="4.99452">
        <ele>182</ele>
        <time>2011-08-04T17:17:10Z</time>
      </trkpt>
      <trkpt lat="45.79314" lon="4.99495">
        <ele>181</ele>
        <time>2011-08-04T17:17:18Z</time>
      </trkpt>
      <trkpt lat="45.79276" lon="4.99515">
        <ele>181</ele>
        <time>2011-08-04T17:17:23Z</time>
      </trkpt>
      <trkpt lat="45.79257" lon="4.99533">
        <ele>181</ele>
        <time>2011-08-04T17:17:26Z</time>
      </trkpt>
      <trkpt lat="45.79195" lon="4.996">
        <ele>182</ele>
        <time>2011-08-04T17:17:36Z</time>
      </trkpt>
      <trkpt lat="45.79189" lon="4.99606">
        <ele>182</ele>
        <time>2011-08-04T17:17:37Z</time>
      </trkpt>
      <trkpt lat="45.79146" lon="4.99627">
        <ele>185</ele>
        <time>2011-08-04T17:17:43Z</time>
      </trkpt>
      <trkpt lat="45.79102" lon="4.99663">
        <ele>187</ele>
        <time>2011-08-04T17:17:50Z</time>
      </trkpt>
      <trkpt lat="45.79009" lon="4.9982">
        <ele>187</ele>
        <time>2011-08-04T17:18:10Z</time>
      </trkpt>
      <trkpt lat="45.78961" lon="4.9988">
        <ele>187</ele>
        <time>2011-08-04T17:18:18Z</time>
      </trkpt>
      <trkpt lat="45.78599" lon="5.00285">
        <ele>193</ele>
        <time>2011-08-04T17:19:22Z</time>
      </trkpt>
      <trkpt lat="45.78531" lon="5.00857">
        <ele>194</ele>
        <time>2011-08-04T17:20:16Z</time>
      </trkpt>
      <trkpt lat="45.78514" lon="5.00896">
        <ele>195</ele>
        <time>2011-08-04T17:20:18Z</time>
      </trkpt>
      <trkpt lat="45.78564" lon="5.00922">
        <ele>194</ele>
        <time>2011-08-04T17:20:20Z</time>
      </trkpt>
      <trkpt lat="45.78608" lon="5.01124">
        <ele>190</ele>
        <time>2011-08-04T17:20:39Z</time>
      </trkpt>
      <trkpt lat="45.78652" lon="5.01114">
        <ele>186</ele>
        <time>2011-08-04T17:20:43Z</time>
      </trkpt>
      <trkpt lat="45.78654" lon="5.01153">
        <ele>187</ele>
        <time>2011-08-04T17:20:49Z</time>
      </trkpt>
      <trkpt lat="45.78648" lon="5.0125">
        <ele>184</ele>
        <time>2011-08-04T17:21:00Z</time>
      </trkpt>
      <trkpt lat="45.78616" lon="5.01353">
        <ele>188</ele>
        <time>2011-08-04T17:21:07Z</time>
      </trkpt>
      <trkpt lat="45.78916" lon="5.02587">
        <ele>189</ele>
        <time>2011-08-04T17:23:21Z</time>
      </trkpt>
      <trkpt lat="45.78929" lon="5.02621">
        <ele>188</ele>
        <time>2011-08-04T17:23:26Z</time>
      </trkpt>
      <trkpt lat="45.78935" lon="5.02633">
        <ele>189</ele>
        <time>2011-08-04T17:23:28Z</time>
      </trkpt>
      <trkpt lat="45.78956" lon="5.02649">
        <ele>189</ele>
        <time>2011-08-04T17:23:30Z</time>
      </trkpt>
      <trkpt lat="45.78978" lon="5.02653">
        <ele>188</ele>
        <time>2011-08-04T17:23:32Z</time>
      </trkpt>
      <trkpt lat="45.79003" lon="5.02658">
        <ele>188</ele>
        <time>2011-08-04T17:23:35Z</time>
      </trkpt>
      <trkpt lat="45.79521" lon="5.03246">
        <ele>186</ele>
        <time>2011-08-04T17:25:09Z</time>
      </trkpt>
      <trkpt lat="45.79529" lon="5.03347">
        <ele>187</ele>
        <time>2011-08-04T17:25:19Z</time>
      </trkpt>
      <trkpt lat="45.79595" lon="5.03646">
        <ele>184</ele>
        <time>2011-08-04T17:25:54Z</time>
      </trkpt>
      <trkpt lat="45.79625" lon="5.03752">
        <ele>186</ele>
        <time>2011-08-04T17:26:06Z</time>
      </trkpt>
      <trkpt lat="45.79658" lon="5.03811">
        <ele>187</ele>
        <time>2011-08-04T17:26:13Z</time>
      </trkpt>
      <trkpt lat="45.80725" lon="5.06511">
        <ele>191</ele>
        <time>2011-08-04T17:31:24Z</time>
      </trkpt>
      <trkpt lat="45.80859" lon="5.06926">
        <ele>192</ele>
        <time>2011-08-04T17:32:07Z</time>
      </trkpt>
      <trkpt lat="45.8099" lon="5.07807">
        <ele>199</ele>
        <time>2011-08-04T17:33:47Z</time>
      </trkpt>
      <trkpt lat="45.80986" lon="5.07807">
        <ele>199</ele>
        <time>2011-08-04T17:33:50Z</time>
      </trkpt>
      <trkpt lat="45.80929" lon="5.07793">
        <ele>203</ele>
        <time>2011-08-04T17:34:17Z</time>
      </trkpt>
      <trkpt lat="45.80908" lon="5.07817">
        <ele>208</ele>
        <time>2011-08-04T17:34:29Z</time>
      </trkpt>
      <trkpt lat="45.80885" lon="5.07822">
        <ele>209</ele>
        <time>2011-08-04T17:34:40Z</time>
      </trkpt>
      <trkpt lat="45.80859" lon="5.07824">
        <ele>210</ele>
        <time>2011-08-04T17:34:53Z</time>
      </trkpt>
      <trkpt lat="45.80832" lon="5.07832">
        <ele>211</ele>
        <time>2011-08-04T17:35:04Z</time>
      </trkpt>
      <trkpt lat="45.80803" lon="5.07837">
        <ele>212</ele>
        <time>2011-08-04T17:35:15Z</time>
      </trkpt>
      <trkpt lat="45.8077" lon="5.07845">
        <ele>213</ele>
        <time>2011-08-04T17:35:28Z</time>
      </trkpt>
      <trkpt lat="45.80765" lon="5.07848">
        <ele>213</ele>
        <time>2011-08-04T17:35:30Z</time>
      </trkpt>
      <trkpt lat="45.80769" lon="5.07882">
        <ele>213</ele>
        <time>2011-08-04T17:35:38Z</time>
      </trkpt>
      <trkpt lat="45.80813" lon="5.08069">
        <ele>224</ele>
        <time>2011-08-04T17:36:21Z</time>
      </trkpt>
      <trkpt lat="45.80804" lon="5.08084">
        <ele>226</ele>
        <time>2011-08-04T17:36:27Z</time>
      </trkpt>
      <trkpt lat="45.80777" lon="5.081">
        <ele>225</ele>
        <time>2011-08-04T17:36:35Z</time>
      </trkpt>
      <trkpt lat="45.80769" lon="5.08106">
        <ele>225</ele>
        <time>2011-08-04T17:36:37Z</time>
      </trkpt>
      <trkpt lat="45.80744" lon="5.0816">
        <ele>223</ele>
        <time>2011-08-04T17:36:45Z</time>
      </trkpt>
      <trkpt lat="45.80725" lon="5.08206">
        <ele>220</ele>
        <time>2011-08-04T17:36:50Z</time>
      </trkpt>
      <trkpt lat="45.80701" lon="5.08265">
        <ele>219</ele>
        <time>2011-08-04T17:36:56Z</time>
      </trkpt>
      <trkpt lat="45.80698" lon="5.08301">
        <ele>219</ele>
        <time>2011-08-04T17:37:00Z</time>
      </trkpt>
      <trkpt lat="45.80698" lon="5.08317">
        <ele>219</ele>
        <time>2011-08-04T17:37:02Z</time>
      </trkpt>
      <trkpt lat="45.80711" lon="5.08353">
        <ele>216</ele>
        <time>2011-08-04T17:37:07Z</time>
      </trkpt>
      <trkpt lat="45.80718" lon="5.08379">
        <ele>215</ele>
        <time>2011-08-04T17:37:10Z</time>
      </trkpt>
      <trkpt lat="45.80725" lon="5.08397">
        <ele>214</ele>
        <time>2011-08-04T17:37:12Z</time>
      </trkpt>
      <trkpt lat="45.8073" lon="5.08409">
        <ele>213</ele>
        <time>2011-08-04T17:37:15Z</time>
      </trkpt>
      <trkpt lat="45.80735" lon="5.08415">
        <ele>212</ele>
        <time>2011-08-04T17:37:17Z</time>
      </trkpt>
      <trkpt lat="45.80753" lon="5.08402">
        <ele>210</ele>
        <time>2011-08-04T17:37:22Z</time>
      </trkpt>
      <trkpt lat="45.80798" lon="5.08373">
        <ele>212</ele>
        <time>2011-08-04T17:37:29Z</time>
      </trkpt>
      <trkpt lat="45.80872" lon="5.08331">
        <ele>212</ele>
        <time>2011-08-04T17:37:40Z</time>
      </trkpt>
      <trkpt lat="45.80893" lon="5.08321">
        <ele>212</ele>
        <time>2011-08-04T17:37:43Z</time>
      </trkpt>
      <trkpt lat="45.80914" lon="5.08316">
        <ele>211</ele>
        <time>2011-08-04T17:37:46Z</time>
      </trkpt>
      <trkpt lat="45.81021" lon="5.08333">
        <ele>197</ele>
        <time>2011-08-04T17:38:01Z</time>
      </trkpt>
      <trkpt lat="45.81028" lon="5.08352">
        <ele>196</ele>
        <time>2011-08-04T17:38:03Z</time>
      </trkpt>
      <trkpt lat="45.81034" lon="5.08472">
        <ele>197</ele>
        <time>2011-08-04T17:38:12Z</time>
      </trkpt>
      <trkpt lat="45.81033" lon="5.08605">
        <ele>199</ele>
        <time>2011-08-04T17:38:21Z</time>
      </trkpt>
      <trkpt lat="45.8102" lon="5.08733">
        <ele>201</ele>
        <time>2011-08-04T17:38:30Z</time>
      </trkpt>
      <trkpt lat="45.81016" lon="5.08867">
        <ele>200</ele>
        <time>2011-08-04T17:38:40Z</time>
      </trkpt>
      <trkpt lat="45.81019" lon="5.0889">
        <ele>200</ele>
        <time>2011-08-04T17:38:42Z</time>
      </trkpt>
      <trkpt lat="45.8104" lon="5.08903">
        <ele>198</ele>
        <time>2011-08-04T17:38:45Z</time>
      </trkpt>
      <trkpt lat="45.81113" lon="5.08906">
        <ele>187</ele>
        <time>2011-08-04T17:38:53Z</time>
      </trkpt>
      <trkpt lat="45.81211" lon="5.08909">
        <ele>185</ele>
        <time>2011-08-04T17:39:04Z</time>
      </trkpt>
      <trkpt lat="45.81313" lon="5.08912">
        <ele>187</ele>
        <time>2011-08-04T17:39:16Z</time>
      </trkpt>
      <trkpt lat="45.81388" lon="5.08883">
        <ele>187</ele>
        <time>2011-08-04T17:39:25Z</time>
      </trkpt>
      <trkpt lat="45.81413" lon="5.08849">
        <ele>186</ele>
        <time>2011-08-04T17:39:29Z</time>
      </trkpt>
      <trkpt lat="45.81438" lon="5.08767">
        <ele>185</ele>
        <time>2011-08-04T17:39:36Z</time>
      </trkpt>
      <trkpt lat="45.81445" lon="5.08704">
        <ele>184</ele>
        <time>2011-08-04T17:39:41Z</time>
      </trkpt>
      <trkpt lat="45.81434" lon="5.08576">
        <ele>184</ele>
        <time>2011-08-04T17:39:51Z</time>
      </trkpt>
      <trkpt lat="45.81431" lon="5.08487">
        <ele>185</ele>
        <time>2011-08-04T17:39:58Z</time>
      </trkpt>
      <trkpt lat="45.81443" lon="5.084">
        <ele>185</ele>
        <time>2011-08-04T17:40:05Z</time>
      </trkpt>
      <trkpt lat="45.81482" lon="5.08278">
        <ele>184</ele>
        <time>2011-08-04T17:40:17Z</time>
      </trkpt>
      <trkpt lat="45.81516" lon="5.08183">
        <ele>186</ele>
        <time>2011-08-04T17:40:28Z</time>
      </trkpt>
      <trkpt lat="45.81602" lon="5.079">
        <ele>183</ele>
        <time>2011-08-04T17:40:59Z</time>
      </trkpt>
      <trkpt lat="45.81634" lon="5.07809">
        <ele>182</ele>
        <time>2011-08-04T17:41:09Z</time>
      </trkpt>
      <trkpt lat="45.81672" lon="5.07697">
        <ele>182</ele>
        <time>2011-08-04T17:41:21Z</time>
      </trkpt>
      <trkpt lat="45.81704" lon="5.07596">
        <ele>183</ele>
        <time>2011-08-04T17:41:32Z</time>
      </trkpt>
      <trkpt lat="45.81749" lon="5.07472">
        <ele>183</ele>
        <time>2011-08-04T17:41:46Z</time>
      </trkpt>
      <trkpt lat="45.81783" lon="5.07412">
        <ele>183</ele>
        <time>2011-08-04T17:41:54Z</time>
      </trkpt>
      <trkpt lat="45.81831" lon="5.07357">
        <ele>183</ele>
        <time>2011-08-04T17:42:03Z</time>
      </trkpt>
      <trkpt lat="45.81887" lon="5.07318">
        <ele>182</ele>
        <time>2011-08-04T17:42:12Z</time>
      </trkpt>
      <trkpt lat="45.81954" lon="5.07298">
        <ele>183</ele>
        <time>2011-08-04T17:42:22Z</time>
      </trkpt>
    </trkseg>
  </trk>
</gpx>